<?xml version="1.0" encoding="UTF-8" standalone="no" ?>
<gpx xmlns="http://www.topografix.com/GPX/1/1" xmlns:xsi="http://www.w3.org/2001/XMLSchema-instance" xsi:schemaLocation="http://www.topografix.com/GPX/1/1 http://www.topografix.com/GPX/1/1/gpx.xsd" version="1.1" creator="VisuGPX - https://www.visugpx.com">
  <metadata>
    <name>Collobrieres01</name>
    <desc><![CDATA[Collobrieres01]]></desc>
  </metadata>
  <trk>
    <name><![CDATA[ACTIVE LOG- 28 JUL 2011 11-33]]></name>
    <trkseg>
      <trkpt lat="43.23669" lon="6.31438">
        <ele>183.75</ele>
        <time>2011-07-28T09:33:13Z</time>
      </trkpt>
      <trkpt lat="43.23693" lon="6.31438">
        <ele>165.96</ele>
        <time>2011-07-28T09:35:12Z</time>
      </trkpt>
      <trkpt lat="43.23703" lon="6.315">
        <ele>165.48</ele>
        <time>2011-07-28T09:35:25Z</time>
      </trkpt>
      <trkpt lat="43.23715" lon="6.31565">
        <ele>165</ele>
        <time>2011-07-28T09:35:38Z</time>
      </trkpt>
      <trkpt lat="43.23728" lon="6.31627">
        <ele>165.48</ele>
        <time>2011-07-28T09:35:53Z</time>
      </trkpt>
      <trkpt lat="43.23739" lon="6.31691">
        <ele>165.48</ele>
        <time>2011-07-28T09:36:08Z</time>
      </trkpt>
      <trkpt lat="43.23751" lon="6.31753">
        <ele>166.45</ele>
        <time>2011-07-28T09:36:22Z</time>
      </trkpt>
      <trkpt lat="43.23763" lon="6.31815">
        <ele>165.48</ele>
        <time>2011-07-28T09:36:34Z</time>
      </trkpt>
      <trkpt lat="43.23773" lon="6.31888">
        <ele>165</ele>
        <time>2011-07-28T09:36:44Z</time>
      </trkpt>
      <trkpt lat="43.2379" lon="6.3195">
        <ele>164.04</ele>
        <time>2011-07-28T09:36:54Z</time>
      </trkpt>
      <trkpt lat="43.23815" lon="6.32004">
        <ele>163.08</ele>
        <time>2011-07-28T09:37:04Z</time>
      </trkpt>
      <trkpt lat="43.23824" lon="6.3207">
        <ele>157.79</ele>
        <time>2011-07-28T09:37:15Z</time>
      </trkpt>
      <trkpt lat="43.23822" lon="6.32135">
        <ele>157.31</ele>
        <time>2011-07-28T09:37:28Z</time>
      </trkpt>
      <trkpt lat="43.23856" lon="6.32172">
        <ele>158.75</ele>
        <time>2011-07-28T09:37:41Z</time>
      </trkpt>
      <trkpt lat="43.23906" lon="6.32162">
        <ele>161.64</ele>
        <time>2011-07-28T09:37:52Z</time>
      </trkpt>
      <trkpt lat="43.23952" lon="6.32151">
        <ele>163.08</ele>
        <time>2011-07-28T09:38:03Z</time>
      </trkpt>
      <trkpt lat="43.23998" lon="6.32155">
        <ele>165.48</ele>
        <time>2011-07-28T09:38:15Z</time>
      </trkpt>
      <trkpt lat="43.24046" lon="6.32159">
        <ele>167.41</ele>
        <time>2011-07-28T09:38:29Z</time>
      </trkpt>
      <trkpt lat="43.24091" lon="6.32137">
        <ele>167.89</ele>
        <time>2011-07-28T09:38:44Z</time>
      </trkpt>
      <trkpt lat="43.24136" lon="6.32124">
        <ele>168.37</ele>
        <time>2011-07-28T09:38:58Z</time>
      </trkpt>
      <trkpt lat="43.24184" lon="6.32119">
        <ele>170.77</ele>
        <time>2011-07-28T09:39:12Z</time>
      </trkpt>
      <trkpt lat="43.24229" lon="6.32141">
        <ele>172.21</ele>
        <time>2011-07-28T09:39:27Z</time>
      </trkpt>
      <trkpt lat="43.24262" lon="6.32187">
        <ele>172.21</ele>
        <time>2011-07-28T09:39:42Z</time>
      </trkpt>
      <trkpt lat="43.24287" lon="6.32241">
        <ele>174.62</ele>
        <time>2011-07-28T09:39:59Z</time>
      </trkpt>
      <trkpt lat="43.24296" lon="6.32302">
        <ele>177.5</ele>
        <time>2011-07-28T09:40:16Z</time>
      </trkpt>
      <trkpt lat="43.24287" lon="6.32365">
        <ele>178.46</ele>
        <time>2011-07-28T09:40:31Z</time>
      </trkpt>
      <trkpt lat="43.24278" lon="6.32426">
        <ele>180.38</ele>
        <time>2011-07-28T09:40:47Z</time>
      </trkpt>
      <trkpt lat="43.24273" lon="6.32486">
        <ele>183.27</ele>
        <time>2011-07-28T09:41:05Z</time>
      </trkpt>
      <trkpt lat="43.24259" lon="6.32543">
        <ele>186.15</ele>
        <time>2011-07-28T09:41:22Z</time>
      </trkpt>
      <trkpt lat="43.24268" lon="6.32603">
        <ele>185.67</ele>
        <time>2011-07-28T09:41:32Z</time>
      </trkpt>
      <trkpt lat="43.24232" lon="6.32658">
        <ele>183.27</ele>
        <time>2011-07-28T09:41:39Z</time>
      </trkpt>
      <trkpt lat="43.24188" lon="6.32686">
        <ele>182.31</ele>
        <time>2011-07-28T09:41:46Z</time>
      </trkpt>
      <trkpt lat="43.24152" lon="6.32721">
        <ele>181.83</ele>
        <time>2011-07-28T09:41:54Z</time>
      </trkpt>
      <trkpt lat="43.24132" lon="6.32777">
        <ele>181.35</ele>
        <time>2011-07-28T09:42:04Z</time>
      </trkpt>
      <trkpt lat="43.24122" lon="6.32839">
        <ele>180.38</ele>
        <time>2011-07-28T09:42:21Z</time>
      </trkpt>
      <trkpt lat="43.2415" lon="6.32887">
        <ele>181.83</ele>
        <time>2011-07-28T09:42:40Z</time>
      </trkpt>
      <trkpt lat="43.24195" lon="6.32915">
        <ele>182.79</ele>
        <time>2011-07-28T09:42:59Z</time>
      </trkpt>
      <trkpt lat="43.24221" lon="6.32971">
        <ele>185.67</ele>
        <time>2011-07-28T09:43:18Z</time>
      </trkpt>
      <trkpt lat="43.24219" lon="6.33033">
        <ele>189.04</ele>
        <time>2011-07-28T09:43:36Z</time>
      </trkpt>
      <trkpt lat="43.24176" lon="6.33063">
        <ele>189.04</ele>
        <time>2011-07-28T09:43:49Z</time>
      </trkpt>
      <trkpt lat="43.24146" lon="6.33109">
        <ele>186.63</ele>
        <time>2011-07-28T09:44:00Z</time>
      </trkpt>
      <trkpt lat="43.24125" lon="6.33161">
        <ele>178.94</ele>
        <time>2011-07-28T09:44:15Z</time>
      </trkpt>
      <trkpt lat="43.241" lon="6.33218">
        <ele>169.33</ele>
        <time>2011-07-28T09:44:31Z</time>
      </trkpt>
      <trkpt lat="43.24098" lon="6.33286">
        <ele>178.94</ele>
        <time>2011-07-28T09:45:35Z</time>
      </trkpt>
      <trkpt lat="43.24097" lon="6.3335">
        <ele>178.46</ele>
        <time>2011-07-28T09:45:44Z</time>
      </trkpt>
      <trkpt lat="43.24096" lon="6.33418">
        <ele>177.02</ele>
        <time>2011-07-28T09:45:52Z</time>
      </trkpt>
      <trkpt lat="43.24103" lon="6.33481">
        <ele>176.06</ele>
        <time>2011-07-28T09:46:00Z</time>
      </trkpt>
      <trkpt lat="43.24111" lon="6.33549">
        <ele>183.27</ele>
        <time>2011-07-28T09:46:13Z</time>
      </trkpt>
      <trkpt lat="43.24121" lon="6.33614">
        <ele>186.15</ele>
        <time>2011-07-28T09:46:28Z</time>
      </trkpt>
      <trkpt lat="43.24133" lon="6.33677">
        <ele>183.75</ele>
        <time>2011-07-28T09:46:37Z</time>
      </trkpt>
      <trkpt lat="43.24124" lon="6.33742">
        <ele>184.23</ele>
        <time>2011-07-28T09:46:46Z</time>
      </trkpt>
      <trkpt lat="43.24101" lon="6.33799">
        <ele>189.52</ele>
        <time>2011-07-28T09:46:57Z</time>
      </trkpt>
      <trkpt lat="43.24108" lon="6.33861">
        <ele>189.52</ele>
        <time>2011-07-28T09:47:11Z</time>
      </trkpt>
      <trkpt lat="43.24134" lon="6.33908">
        <ele>188.56</ele>
        <time>2011-07-28T09:47:25Z</time>
      </trkpt>
      <trkpt lat="43.24164" lon="6.33954">
        <ele>188.56</ele>
        <time>2011-07-28T09:47:38Z</time>
      </trkpt>
      <trkpt lat="43.24198" lon="6.33994">
        <ele>188.56</ele>
        <time>2011-07-28T09:47:51Z</time>
      </trkpt>
      <trkpt lat="43.24234" lon="6.3403">
        <ele>189.04</ele>
        <time>2011-07-28T09:48:04Z</time>
      </trkpt>
      <trkpt lat="43.24281" lon="6.34039">
        <ele>191.92</ele>
        <time>2011-07-28T09:49:14Z</time>
      </trkpt>
      <trkpt lat="43.2432" lon="6.34007">
        <ele>193.84</ele>
        <time>2011-07-28T09:49:35Z</time>
      </trkpt>
      <trkpt lat="43.24353" lon="6.33962">
        <ele>195.28</ele>
        <time>2011-07-28T09:49:59Z</time>
      </trkpt>
      <trkpt lat="43.24372" lon="6.33905">
        <ele>200.09</ele>
        <time>2011-07-28T09:50:21Z</time>
      </trkpt>
      <trkpt lat="43.24402" lon="6.33858">
        <ele>204.9</ele>
        <time>2011-07-28T09:50:46Z</time>
      </trkpt>
      <trkpt lat="43.2444" lon="6.33833">
        <ele>205.38</ele>
        <time>2011-07-28T09:51:11Z</time>
      </trkpt>
      <trkpt lat="43.24454" lon="6.33894">
        <ele>209.7</ele>
        <time>2011-07-28T09:51:36Z</time>
      </trkpt>
      <trkpt lat="43.2446" lon="6.33957">
        <ele>213.55</ele>
        <time>2011-07-28T09:52:03Z</time>
      </trkpt>
      <trkpt lat="43.24468" lon="6.34011">
        <ele>215.47</ele>
        <time>2011-07-28T09:52:26Z</time>
      </trkpt>
      <trkpt lat="43.24514" lon="6.34019">
        <ele>214.51</ele>
        <time>2011-07-28T09:52:46Z</time>
      </trkpt>
      <trkpt lat="43.24557" lon="6.34006">
        <ele>216.91</ele>
        <time>2011-07-28T09:53:09Z</time>
      </trkpt>
      <trkpt lat="43.24597" lon="6.34024">
        <ele>218.84</ele>
        <time>2011-07-28T09:53:35Z</time>
      </trkpt>
      <trkpt lat="43.24634" lon="6.34061">
        <ele>222.68</ele>
        <time>2011-07-28T09:53:59Z</time>
      </trkpt>
      <trkpt lat="43.24679" lon="6.34066">
        <ele>226.05</ele>
        <time>2011-07-28T09:54:21Z</time>
      </trkpt>
      <trkpt lat="43.24725" lon="6.34076">
        <ele>227.97</ele>
        <time>2011-07-28T09:54:46Z</time>
      </trkpt>
      <trkpt lat="43.24767" lon="6.34067">
        <ele>229.89</ele>
        <time>2011-07-28T09:55:10Z</time>
      </trkpt>
      <trkpt lat="43.24808" lon="6.34077">
        <ele>232.78</ele>
        <time>2011-07-28T09:55:34Z</time>
      </trkpt>
      <trkpt lat="43.24839" lon="6.34129">
        <ele>236.62</ele>
        <time>2011-07-28T09:56:01Z</time>
      </trkpt>
      <trkpt lat="43.24859" lon="6.34089">
        <ele>235.18</ele>
        <time>2011-07-28T09:56:27Z</time>
      </trkpt>
      <trkpt lat="43.24887" lon="6.34038">
        <ele>237.58</ele>
        <time>2011-07-28T09:56:52Z</time>
      </trkpt>
      <trkpt lat="43.2491" lon="6.33985">
        <ele>237.1</ele>
        <time>2011-07-28T09:57:18Z</time>
      </trkpt>
      <trkpt lat="43.24946" lon="6.33951">
        <ele>238.54</ele>
        <time>2011-07-28T09:57:39Z</time>
      </trkpt>
      <trkpt lat="43.24978" lon="6.33979">
        <ele>243.35</ele>
        <time>2011-07-28T09:58:00Z</time>
      </trkpt>
      <trkpt lat="43.24957" lon="6.34036">
        <ele>245.75</ele>
        <time>2011-07-28T09:58:24Z</time>
      </trkpt>
      <trkpt lat="43.24969" lon="6.34094">
        <ele>248.16</ele>
        <time>2011-07-28T09:58:49Z</time>
      </trkpt>
      <trkpt lat="43.24998" lon="6.34139">
        <ele>250.08</ele>
        <time>2011-07-28T09:59:15Z</time>
      </trkpt>
      <trkpt lat="43.2503" lon="6.34185">
        <ele>252.96</ele>
        <time>2011-07-28T09:59:42Z</time>
      </trkpt>
      <trkpt lat="43.25065" lon="6.34228">
        <ele>257.29</ele>
        <time>2011-07-28T10:00:10Z</time>
      </trkpt>
      <trkpt lat="43.25109" lon="6.34256">
        <ele>260.65</ele>
        <time>2011-07-28T10:00:40Z</time>
      </trkpt>
      <trkpt lat="43.25156" lon="6.34268">
        <ele>264.5</ele>
        <time>2011-07-28T10:01:09Z</time>
      </trkpt>
      <trkpt lat="43.25191" lon="6.34319">
        <ele>264.98</ele>
        <time>2011-07-28T10:01:39Z</time>
      </trkpt>
      <trkpt lat="43.25217" lon="6.34376">
        <ele>267.38</ele>
        <time>2011-07-28T10:02:10Z</time>
      </trkpt>
      <trkpt lat="43.25227" lon="6.34432">
        <ele>271.71</ele>
        <time>2011-07-28T10:02:38Z</time>
      </trkpt>
      <trkpt lat="43.25228" lon="6.34483">
        <ele>271.71</ele>
        <time>2011-07-28T10:03:07Z</time>
      </trkpt>
      <trkpt lat="43.25266" lon="6.34453">
        <ele>272.19</ele>
        <time>2011-07-28T10:03:34Z</time>
      </trkpt>
      <trkpt lat="43.25293" lon="6.34408">
        <ele>274.59</ele>
        <time>2011-07-28T10:04:00Z</time>
      </trkpt>
      <trkpt lat="43.25334" lon="6.34381">
        <ele>277.48</ele>
        <time>2011-07-28T10:04:26Z</time>
      </trkpt>
      <trkpt lat="43.25376" lon="6.34354">
        <ele>278.44</ele>
        <time>2011-07-28T10:04:53Z</time>
      </trkpt>
      <trkpt lat="43.25421" lon="6.34347">
        <ele>282.77</ele>
        <time>2011-07-28T10:05:21Z</time>
      </trkpt>
      <trkpt lat="43.25449" lon="6.34392">
        <ele>284.69</ele>
        <time>2011-07-28T10:10:28Z</time>
      </trkpt>
      <trkpt lat="43.25474" lon="6.34446">
        <ele>288.05</ele>
        <time>2011-07-28T10:10:56Z</time>
      </trkpt>
      <trkpt lat="43.25494" lon="6.34505">
        <ele>291.42</ele>
        <time>2011-07-28T10:11:24Z</time>
      </trkpt>
      <trkpt lat="43.25493" lon="6.34567">
        <ele>293.34</ele>
        <time>2011-07-28T10:11:50Z</time>
      </trkpt>
      <trkpt lat="43.25489" lon="6.34628">
        <ele>295.26</ele>
        <time>2011-07-28T10:12:16Z</time>
      </trkpt>
      <trkpt lat="43.25472" lon="6.34686">
        <ele>298.15</ele>
        <time>2011-07-28T10:12:43Z</time>
      </trkpt>
      <trkpt lat="43.25466" lon="6.34748">
        <ele>300.07</ele>
        <time>2011-07-28T10:13:12Z</time>
      </trkpt>
      <trkpt lat="43.25462" lon="6.34809">
        <ele>301.99</ele>
        <time>2011-07-28T10:13:40Z</time>
      </trkpt>
      <trkpt lat="43.25472" lon="6.34866">
        <ele>303.43</ele>
        <time>2011-07-28T10:14:06Z</time>
      </trkpt>
      <trkpt lat="43.25515" lon="6.34872">
        <ele>308.24</ele>
        <time>2011-07-28T10:14:31Z</time>
      </trkpt>
      <trkpt lat="43.25561" lon="6.3489">
        <ele>308.72</ele>
        <time>2011-07-28T10:14:57Z</time>
      </trkpt>
      <trkpt lat="43.25604" lon="6.34882">
        <ele>310.64</ele>
        <time>2011-07-28T10:15:23Z</time>
      </trkpt>
      <trkpt lat="43.25645" lon="6.34859">
        <ele>313.53</ele>
        <time>2011-07-28T10:15:41Z</time>
      </trkpt>
      <trkpt lat="43.25679" lon="6.3482">
        <ele>315.93</ele>
        <time>2011-07-28T10:16:05Z</time>
      </trkpt>
      <trkpt lat="43.25707" lon="6.34865">
        <ele>317.85</ele>
        <time>2011-07-28T10:16:31Z</time>
      </trkpt>
      <trkpt lat="43.25713" lon="6.34924">
        <ele>320.74</ele>
        <time>2011-07-28T10:16:56Z</time>
      </trkpt>
      <trkpt lat="43.25756" lon="6.34908">
        <ele>323.14</ele>
        <time>2011-07-28T10:17:19Z</time>
      </trkpt>
      <trkpt lat="43.25803" lon="6.349">
        <ele>326.02</ele>
        <time>2011-07-28T10:17:45Z</time>
      </trkpt>
      <trkpt lat="43.25836" lon="6.34862">
        <ele>328.43</ele>
        <time>2011-07-28T10:18:06Z</time>
      </trkpt>
      <trkpt lat="43.25871" lon="6.34878">
        <ele>329.87</ele>
        <time>2011-07-28T10:18:31Z</time>
      </trkpt>
      <trkpt lat="43.25892" lon="6.34937">
        <ele>331.79</ele>
        <time>2011-07-28T10:18:56Z</time>
      </trkpt>
      <trkpt lat="43.25934" lon="6.3496">
        <ele>333.23</ele>
        <time>2011-07-28T10:19:21Z</time>
      </trkpt>
      <trkpt lat="43.25971" lon="6.34985">
        <ele>333.23</ele>
        <time>2011-07-28T10:20:25Z</time>
      </trkpt>
      <trkpt lat="43.25986" lon="6.35049">
        <ele>336.12</ele>
        <time>2011-07-28T10:20:52Z</time>
      </trkpt>
      <trkpt lat="43.26012" lon="6.35099">
        <ele>339.96</ele>
        <time>2011-07-28T10:21:17Z</time>
      </trkpt>
      <trkpt lat="43.2603" lon="6.35158">
        <ele>340.92</ele>
        <time>2011-07-28T10:21:43Z</time>
      </trkpt>
      <trkpt lat="43.26049" lon="6.35214">
        <ele>345.25</ele>
        <time>2011-07-28T10:22:08Z</time>
      </trkpt>
      <trkpt lat="43.26076" lon="6.35264">
        <ele>347.65</ele>
        <time>2011-07-28T10:22:33Z</time>
      </trkpt>
      <trkpt lat="43.26103" lon="6.353">
        <ele>348.62</ele>
        <time>2011-07-28T10:22:58Z</time>
      </trkpt>
      <trkpt lat="43.26145" lon="6.35315">
        <ele>351.5</ele>
        <time>2011-07-28T10:23:22Z</time>
      </trkpt>
      <trkpt lat="43.26121" lon="6.35366">
        <ele>355.83</ele>
        <time>2011-07-28T10:23:46Z</time>
      </trkpt>
      <trkpt lat="43.26078" lon="6.35383">
        <ele>359.19</ele>
        <time>2011-07-28T10:24:11Z</time>
      </trkpt>
      <trkpt lat="43.26048" lon="6.35427">
        <ele>351.98</ele>
        <time>2011-07-28T10:24:37Z</time>
      </trkpt>
      <trkpt lat="43.26032" lon="6.35486">
        <ele>356.79</ele>
        <time>2011-07-28T10:25:02Z</time>
      </trkpt>
      <trkpt lat="43.26014" lon="6.35546">
        <ele>359.67</ele>
        <time>2011-07-28T10:25:28Z</time>
      </trkpt>
      <trkpt lat="43.2601" lon="6.3561">
        <ele>364</ele>
        <time>2011-07-28T10:25:56Z</time>
      </trkpt>
      <trkpt lat="43.26007" lon="6.3567">
        <ele>367.84</ele>
        <time>2011-07-28T10:26:22Z</time>
      </trkpt>
      <trkpt lat="43.25993" lon="6.3573">
        <ele>372.17</ele>
        <time>2011-07-28T10:26:48Z</time>
      </trkpt>
      <trkpt lat="43.26017" lon="6.35746">
        <ele>374.09</ele>
        <time>2011-07-28T10:27:06Z</time>
      </trkpt>
      <trkpt lat="43.26052" lon="6.35709">
        <ele>379.86</ele>
        <time>2011-07-28T10:29:24Z</time>
      </trkpt>
      <trkpt lat="43.26084" lon="6.35665">
        <ele>382.74</ele>
        <time>2011-07-28T10:29:48Z</time>
      </trkpt>
      <trkpt lat="43.2611" lon="6.35614">
        <ele>384.66</ele>
        <time>2011-07-28T10:30:15Z</time>
      </trkpt>
      <trkpt lat="43.26137" lon="6.35568">
        <ele>387.07</ele>
        <time>2011-07-28T10:30:41Z</time>
      </trkpt>
      <trkpt lat="43.26182" lon="6.3558">
        <ele>386.11</ele>
        <time>2011-07-28T10:31:07Z</time>
      </trkpt>
      <trkpt lat="43.26225" lon="6.35566">
        <ele>388.03</ele>
        <time>2011-07-28T10:31:35Z</time>
      </trkpt>
      <trkpt lat="43.26273" lon="6.35565">
        <ele>395.24</ele>
        <time>2011-07-28T10:32:03Z</time>
      </trkpt>
      <trkpt lat="43.26321" lon="6.35566">
        <ele>398.12</ele>
        <time>2011-07-28T10:32:32Z</time>
      </trkpt>
      <trkpt lat="43.26347" lon="6.35621">
        <ele>395.24</ele>
        <time>2011-07-28T10:33:01Z</time>
      </trkpt>
      <trkpt lat="43.26371" lon="6.35677">
        <ele>398.6</ele>
        <time>2011-07-28T10:33:30Z</time>
      </trkpt>
      <trkpt lat="43.2638" lon="6.35738">
        <ele>399.57</ele>
        <time>2011-07-28T10:33:56Z</time>
      </trkpt>
      <trkpt lat="43.26369" lon="6.35797">
        <ele>401.49</ele>
        <time>2011-07-28T10:34:22Z</time>
      </trkpt>
      <trkpt lat="43.26411" lon="6.35819">
        <ele>407.74</ele>
        <time>2011-07-28T10:34:50Z</time>
      </trkpt>
      <trkpt lat="43.26449" lon="6.35816">
        <ele>411.1</ele>
        <time>2011-07-28T10:35:14Z</time>
      </trkpt>
      <trkpt lat="43.26474" lon="6.35763">
        <ele>417.35</ele>
        <time>2011-07-28T10:35:38Z</time>
      </trkpt>
      <trkpt lat="43.26518" lon="6.35781">
        <ele>418.31</ele>
        <time>2011-07-28T10:36:03Z</time>
      </trkpt>
      <trkpt lat="43.26565" lon="6.35794">
        <ele>419.75</ele>
        <time>2011-07-28T10:36:31Z</time>
      </trkpt>
      <trkpt lat="43.26614" lon="6.35808">
        <ele>425.04</ele>
        <time>2011-07-28T10:36:58Z</time>
      </trkpt>
      <trkpt lat="43.2666" lon="6.35854">
        <ele>427.92</ele>
        <time>2011-07-28T10:37:33Z</time>
      </trkpt>
      <trkpt lat="43.26713" lon="6.35848">
        <ele>431.77</ele>
        <time>2011-07-28T10:38:50Z</time>
      </trkpt>
      <trkpt lat="43.26761" lon="6.35879">
        <ele>430.33</ele>
        <time>2011-07-28T10:39:15Z</time>
      </trkpt>
      <trkpt lat="43.26781" lon="6.35941">
        <ele>427.44</ele>
        <time>2011-07-28T10:39:45Z</time>
      </trkpt>
      <trkpt lat="43.2676" lon="6.35994">
        <ele>429.85</ele>
        <time>2011-07-28T10:40:10Z</time>
      </trkpt>
      <trkpt lat="43.26779" lon="6.3606">
        <ele>435.13</ele>
        <time>2011-07-28T10:40:35Z</time>
      </trkpt>
      <trkpt lat="43.26753" lon="6.36119">
        <ele>426.96</ele>
        <time>2011-07-28T10:41:06Z</time>
      </trkpt>
      <trkpt lat="43.26751" lon="6.36182">
        <ele>427.44</ele>
        <time>2011-07-28T10:41:34Z</time>
      </trkpt>
      <trkpt lat="43.26791" lon="6.36217">
        <ele>447.15</ele>
        <time>2011-07-28T10:41:58Z</time>
      </trkpt>
      <trkpt lat="43.26803" lon="6.36286">
        <ele>438.98</ele>
        <time>2011-07-28T10:42:12Z</time>
      </trkpt>
      <trkpt lat="43.26774" lon="6.36341">
        <ele>434.65</ele>
        <time>2011-07-28T10:42:24Z</time>
      </trkpt>
      <trkpt lat="43.26755" lon="6.36399">
        <ele>431.77</ele>
        <time>2011-07-28T10:42:35Z</time>
      </trkpt>
      <trkpt lat="43.26735" lon="6.36459">
        <ele>426</ele>
        <time>2011-07-28T10:42:46Z</time>
      </trkpt>
      <trkpt lat="43.26755" lon="6.36504">
        <ele>424.56</ele>
        <time>2011-07-28T10:43:03Z</time>
      </trkpt>
      <trkpt lat="43.268" lon="6.36505">
        <ele>428.89</ele>
        <time>2011-07-28T10:43:31Z</time>
      </trkpt>
      <trkpt lat="43.26845" lon="6.36492">
        <ele>437.06</ele>
        <time>2011-07-28T10:43:59Z</time>
      </trkpt>
      <trkpt lat="43.26846" lon="6.36546">
        <ele>447.15</ele>
        <time>2011-07-28T10:44:30Z</time>
      </trkpt>
      <trkpt lat="43.26823" lon="6.36596">
        <ele>445.23</ele>
        <time>2011-07-28T10:44:58Z</time>
      </trkpt>
      <trkpt lat="43.2681" lon="6.36656">
        <ele>450.52</ele>
        <time>2011-07-28T10:45:25Z</time>
      </trkpt>
      <trkpt lat="43.26832" lon="6.36704">
        <ele>452.44</ele>
        <time>2011-07-28T10:45:50Z</time>
      </trkpt>
      <trkpt lat="43.26862" lon="6.36658">
        <ele>459.65</ele>
        <time>2011-07-28T10:46:14Z</time>
      </trkpt>
      <trkpt lat="43.269" lon="6.36623">
        <ele>463.97</ele>
        <time>2011-07-28T10:46:40Z</time>
      </trkpt>
      <trkpt lat="43.26941" lon="6.36598">
        <ele>466.38</ele>
        <time>2011-07-28T10:47:06Z</time>
      </trkpt>
      <trkpt lat="43.26986" lon="6.36621">
        <ele>468.3</ele>
        <time>2011-07-28T10:47:35Z</time>
      </trkpt>
      <trkpt lat="43.27034" lon="6.36636">
        <ele>470.22</ele>
        <time>2011-07-28T10:48:03Z</time>
      </trkpt>
      <trkpt lat="43.27076" lon="6.36658">
        <ele>468.78</ele>
        <time>2011-07-28T10:48:33Z</time>
      </trkpt>
      <trkpt lat="43.27106" lon="6.36699">
        <ele>469.26</ele>
        <time>2011-07-28T10:49:04Z</time>
      </trkpt>
      <trkpt lat="43.2713" lon="6.36761">
        <ele>471.66</ele>
        <time>2011-07-28T10:50:31Z</time>
      </trkpt>
      <trkpt lat="43.27161" lon="6.36717">
        <ele>478.87</ele>
        <time>2011-07-28T10:50:54Z</time>
      </trkpt>
      <trkpt lat="43.27171" lon="6.36656">
        <ele>483.2</ele>
        <time>2011-07-28T10:51:19Z</time>
      </trkpt>
      <trkpt lat="43.27193" lon="6.36602">
        <ele>488.97</ele>
        <time>2011-07-28T10:51:47Z</time>
      </trkpt>
      <trkpt lat="43.27203" lon="6.36541">
        <ele>492.33</ele>
        <time>2011-07-28T10:52:15Z</time>
      </trkpt>
      <trkpt lat="43.2719" lon="6.36483">
        <ele>496.18</ele>
        <time>2011-07-28T10:52:44Z</time>
      </trkpt>
      <trkpt lat="43.27189" lon="6.36421">
        <ele>500.02</ele>
        <time>2011-07-28T10:53:30Z</time>
      </trkpt>
      <trkpt lat="43.27223" lon="6.36386">
        <ele>499.06</ele>
        <time>2011-07-28T10:53:54Z</time>
      </trkpt>
      <trkpt lat="43.27268" lon="6.36393">
        <ele>500.02</ele>
        <time>2011-07-28T10:54:19Z</time>
      </trkpt>
      <trkpt lat="43.27312" lon="6.36382">
        <ele>503.87</ele>
        <time>2011-07-28T10:55:09Z</time>
      </trkpt>
      <trkpt lat="43.27356" lon="6.36408">
        <ele>503.87</ele>
        <time>2011-07-28T10:55:35Z</time>
      </trkpt>
      <trkpt lat="43.2739" lon="6.3645">
        <ele>504.35</ele>
        <time>2011-07-28T10:56:01Z</time>
      </trkpt>
      <trkpt lat="43.27433" lon="6.36453">
        <ele>506.75</ele>
        <time>2011-07-28T10:56:30Z</time>
      </trkpt>
      <trkpt lat="43.27466" lon="6.36427">
        <ele>511.56</ele>
        <time>2011-07-28T10:56:57Z</time>
      </trkpt>
      <trkpt lat="43.27504" lon="6.36394">
        <ele>517.33</ele>
        <time>2011-07-28T10:57:25Z</time>
      </trkpt>
      <trkpt lat="43.27539" lon="6.36428">
        <ele>518.77</ele>
        <time>2011-07-28T10:57:54Z</time>
      </trkpt>
      <trkpt lat="43.27568" lon="6.36488">
        <ele>519.73</ele>
        <time>2011-07-28T10:59:05Z</time>
      </trkpt>
      <trkpt lat="43.27613" lon="6.365">
        <ele>524.54</ele>
        <time>2011-07-28T10:59:35Z</time>
      </trkpt>
      <trkpt lat="43.2765" lon="6.36539">
        <ele>528.38</ele>
        <time>2011-07-28T11:00:05Z</time>
      </trkpt>
      <trkpt lat="43.2769" lon="6.36508">
        <ele>533.67</ele>
        <time>2011-07-28T11:00:31Z</time>
      </trkpt>
      <trkpt lat="43.2773" lon="6.36481">
        <ele>537.03</ele>
        <time>2011-07-28T11:00:59Z</time>
      </trkpt>
      <trkpt lat="43.2777" lon="6.36455">
        <ele>535.11</ele>
        <time>2011-07-28T11:01:26Z</time>
      </trkpt>
      <trkpt lat="43.27804" lon="6.36411">
        <ele>537.99</ele>
        <time>2011-07-28T11:01:50Z</time>
      </trkpt>
      <trkpt lat="43.27844" lon="6.36383">
        <ele>539.92</ele>
        <time>2011-07-28T11:02:17Z</time>
      </trkpt>
      <trkpt lat="43.27881" lon="6.36343">
        <ele>542.8</ele>
        <time>2011-07-28T11:02:44Z</time>
      </trkpt>
      <trkpt lat="43.27916" lon="6.36298">
        <ele>544.72</ele>
        <time>2011-07-28T11:03:12Z</time>
      </trkpt>
      <trkpt lat="43.27962" lon="6.36287">
        <ele>547.61</ele>
        <time>2011-07-28T11:03:34Z</time>
      </trkpt>
      <trkpt lat="43.28008" lon="6.36282">
        <ele>551.93</ele>
        <time>2011-07-28T11:04:01Z</time>
      </trkpt>
      <trkpt lat="43.28053" lon="6.36269">
        <ele>556.26</ele>
        <time>2011-07-28T11:04:24Z</time>
      </trkpt>
      <trkpt lat="43.28098" lon="6.36277">
        <ele>555.78</ele>
        <time>2011-07-28T11:04:53Z</time>
      </trkpt>
      <trkpt lat="43.28101" lon="6.36275">
        <ele>560.59</ele>
        <time>2011-07-28T11:06:59Z</time>
      </trkpt>
      <trkpt lat="43.28132" lon="6.36235">
        <ele>561.55</ele>
        <time>2011-07-28T11:07:31Z</time>
      </trkpt>
      <trkpt lat="43.28172" lon="6.36195">
        <ele>573.56</ele>
        <time>2011-07-28T11:09:07Z</time>
      </trkpt>
      <trkpt lat="43.28214" lon="6.36161">
        <ele>576.45</ele>
        <time>2011-07-28T11:09:37Z</time>
      </trkpt>
      <trkpt lat="43.28265" lon="6.36124">
        <ele>589.91</ele>
        <time>2011-07-28T11:10:13Z</time>
      </trkpt>
      <trkpt lat="43.28321" lon="6.36092">
        <ele>588.95</ele>
        <time>2011-07-28T11:10:46Z</time>
      </trkpt>
      <trkpt lat="43.28374" lon="6.36099">
        <ele>585.58</ele>
        <time>2011-07-28T11:11:21Z</time>
      </trkpt>
      <trkpt lat="43.28424" lon="6.36131">
        <ele>589.43</ele>
        <time>2011-07-28T11:11:57Z</time>
      </trkpt>
      <trkpt lat="43.28477" lon="6.36131">
        <ele>600.96</ele>
        <time>2011-07-28T11:12:39Z</time>
      </trkpt>
      <trkpt lat="43.28482" lon="6.36088">
        <ele>596.64</ele>
        <time>2011-07-28T11:13:06Z</time>
      </trkpt>
      <trkpt lat="43.28439" lon="6.36089">
        <ele>590.87</ele>
        <time>2011-07-28T11:13:29Z</time>
      </trkpt>
      <trkpt lat="43.284" lon="6.36049">
        <ele>588.95</ele>
        <time>2011-07-28T11:13:54Z</time>
      </trkpt>
      <trkpt lat="43.28353" lon="6.36026">
        <ele>589.91</ele>
        <time>2011-07-28T11:14:19Z</time>
      </trkpt>
      <trkpt lat="43.28305" lon="6.36011">
        <ele>589.43</ele>
        <time>2011-07-28T11:14:43Z</time>
      </trkpt>
      <trkpt lat="43.28258" lon="6.36015">
        <ele>591.83</ele>
        <time>2011-07-28T11:15:12Z</time>
      </trkpt>
      <trkpt lat="43.28212" lon="6.35996">
        <ele>595.67</ele>
        <time>2011-07-28T11:15:41Z</time>
      </trkpt>
      <trkpt lat="43.2819" lon="6.3594">
        <ele>609.61</ele>
        <time>2011-07-28T11:16:03Z</time>
      </trkpt>
      <trkpt lat="43.2817" lon="6.35883">
        <ele>617.78</ele>
        <time>2011-07-28T11:16:25Z</time>
      </trkpt>
      <trkpt lat="43.28144" lon="6.35833">
        <ele>618.75</ele>
        <time>2011-07-28T11:16:49Z</time>
      </trkpt>
      <trkpt lat="43.28103" lon="6.3581">
        <ele>618.26</ele>
        <time>2011-07-28T11:17:17Z</time>
      </trkpt>
      <trkpt lat="43.2806" lon="6.35786">
        <ele>619.23</ele>
        <time>2011-07-28T11:18:18Z</time>
      </trkpt>
      <trkpt lat="43.28041" lon="6.35729">
        <ele>629.32</ele>
        <time>2011-07-28T11:18:48Z</time>
      </trkpt>
      <trkpt lat="43.28032" lon="6.35666">
        <ele>633.65</ele>
        <time>2011-07-28T11:19:12Z</time>
      </trkpt>
      <trkpt lat="43.27994" lon="6.35643">
        <ele>628.84</ele>
        <time>2011-07-28T11:19:37Z</time>
      </trkpt>
      <trkpt lat="43.27951" lon="6.35621">
        <ele>636.53</ele>
        <time>2011-07-28T11:20:06Z</time>
      </trkpt>
      <trkpt lat="43.27915" lon="6.35587">
        <ele>637.97</ele>
        <time>2011-07-28T11:20:31Z</time>
      </trkpt>
      <trkpt lat="43.27871" lon="6.35578">
        <ele>636.05</ele>
        <time>2011-07-28T11:20:51Z</time>
      </trkpt>
      <trkpt lat="43.27825" lon="6.3557">
        <ele>641.82</ele>
        <time>2011-07-28T11:21:11Z</time>
      </trkpt>
      <trkpt lat="43.27837" lon="6.35502">
        <ele>641.82</ele>
        <time>2011-07-28T11:21:22Z</time>
      </trkpt>
      <trkpt lat="43.27859" lon="6.35444">
        <ele>638.93</ele>
        <time>2011-07-28T11:21:29Z</time>
      </trkpt>
      <trkpt lat="43.27869" lon="6.35374">
        <ele>636.05</ele>
        <time>2011-07-28T11:21:36Z</time>
      </trkpt>
      <trkpt lat="43.27882" lon="6.35312">
        <ele>633.17</ele>
        <time>2011-07-28T11:21:42Z</time>
      </trkpt>
      <trkpt lat="43.27889" lon="6.35252">
        <ele>630.28</ele>
        <time>2011-07-28T11:21:50Z</time>
      </trkpt>
      <trkpt lat="43.27888" lon="6.35192">
        <ele>628.36</ele>
        <time>2011-07-28T11:21:59Z</time>
      </trkpt>
      <trkpt lat="43.27909" lon="6.35133">
        <ele>625.96</ele>
        <time>2011-07-28T11:22:06Z</time>
      </trkpt>
      <trkpt lat="43.27943" lon="6.35084">
        <ele>624.51</ele>
        <time>2011-07-28T11:22:13Z</time>
      </trkpt>
      <trkpt lat="43.2798" lon="6.35047">
        <ele>622.11</ele>
        <time>2011-07-28T11:22:19Z</time>
      </trkpt>
      <trkpt lat="43.27995" lon="6.3499">
        <ele>618.26</ele>
        <time>2011-07-28T11:22:25Z</time>
      </trkpt>
      <trkpt lat="43.27989" lon="6.34924">
        <ele>616.82</ele>
        <time>2011-07-28T11:22:31Z</time>
      </trkpt>
      <trkpt lat="43.27992" lon="6.34862">
        <ele>615.86</ele>
        <time>2011-07-28T11:22:37Z</time>
      </trkpt>
      <trkpt lat="43.28034" lon="6.34828">
        <ele>616.82</ele>
        <time>2011-07-28T11:22:45Z</time>
      </trkpt>
      <trkpt lat="43.28042" lon="6.34822">
        <ele>618.26</ele>
        <time>2011-07-28T11:23:43Z</time>
      </trkpt>
      <trkpt lat="43.28072" lon="6.34772">
        <ele>621.63</ele>
        <time>2011-07-28T11:24:01Z</time>
      </trkpt>
      <trkpt lat="43.28111" lon="6.34718">
        <ele>624.51</ele>
        <time>2011-07-28T11:24:13Z</time>
      </trkpt>
      <trkpt lat="43.28149" lon="6.34678">
        <ele>625.47</ele>
        <time>2011-07-28T11:24:23Z</time>
      </trkpt>
      <trkpt lat="43.28185" lon="6.34637">
        <ele>626.92</ele>
        <time>2011-07-28T11:24:33Z</time>
      </trkpt>
      <trkpt lat="43.28168" lon="6.34584">
        <ele>615.38</ele>
        <time>2011-07-28T11:25:10Z</time>
      </trkpt>
      <trkpt lat="43.28172" lon="6.3452">
        <ele>613.94</ele>
        <time>2011-07-28T11:25:23Z</time>
      </trkpt>
      <trkpt lat="43.28211" lon="6.34474">
        <ele>611.54</ele>
        <time>2011-07-28T11:25:33Z</time>
      </trkpt>
      <trkpt lat="43.2824" lon="6.34426">
        <ele>609.13</ele>
        <time>2011-07-28T11:25:41Z</time>
      </trkpt>
      <trkpt lat="43.28232" lon="6.34362">
        <ele>607.21</ele>
        <time>2011-07-28T11:25:49Z</time>
      </trkpt>
      <trkpt lat="43.28201" lon="6.34314">
        <ele>603.85</ele>
        <time>2011-07-28T11:25:57Z</time>
      </trkpt>
      <trkpt lat="43.28171" lon="6.34268">
        <ele>602.88</ele>
        <time>2011-07-28T11:26:05Z</time>
      </trkpt>
      <trkpt lat="43.28159" lon="6.34202">
        <ele>600.48</ele>
        <time>2011-07-28T11:26:13Z</time>
      </trkpt>
      <trkpt lat="43.28168" lon="6.34135">
        <ele>598.56</ele>
        <time>2011-07-28T11:26:20Z</time>
      </trkpt>
      <trkpt lat="43.28153" lon="6.34076">
        <ele>597.6</ele>
        <time>2011-07-28T11:26:27Z</time>
      </trkpt>
      <trkpt lat="43.28164" lon="6.34008">
        <ele>598.56</ele>
        <time>2011-07-28T11:26:35Z</time>
      </trkpt>
      <trkpt lat="43.2818" lon="6.3394">
        <ele>598.56</ele>
        <time>2011-07-28T11:26:42Z</time>
      </trkpt>
      <trkpt lat="43.28183" lon="6.33877">
        <ele>599.04</ele>
        <time>2011-07-28T11:26:48Z</time>
      </trkpt>
      <trkpt lat="43.2822" lon="6.33848">
        <ele>596.15</ele>
        <time>2011-07-28T11:26:56Z</time>
      </trkpt>
      <trkpt lat="43.28269" lon="6.33871">
        <ele>586.06</ele>
        <time>2011-07-28T11:27:04Z</time>
      </trkpt>
      <trkpt lat="43.28311" lon="6.3385">
        <ele>582.7</ele>
        <time>2011-07-28T11:27:12Z</time>
      </trkpt>
      <trkpt lat="43.28321" lon="6.3378">
        <ele>580.29</ele>
        <time>2011-07-28T11:27:20Z</time>
      </trkpt>
      <trkpt lat="43.28326" lon="6.33709">
        <ele>578.85</ele>
        <time>2011-07-28T11:27:28Z</time>
      </trkpt>
      <trkpt lat="43.28293" lon="6.33663">
        <ele>575.97</ele>
        <time>2011-07-28T11:27:35Z</time>
      </trkpt>
      <trkpt lat="43.28252" lon="6.33622">
        <ele>573.56</ele>
        <time>2011-07-28T11:27:42Z</time>
      </trkpt>
      <trkpt lat="43.28233" lon="6.33566">
        <ele>571.64</ele>
        <time>2011-07-28T11:27:50Z</time>
      </trkpt>
      <trkpt lat="43.28241" lon="6.33506">
        <ele>569.24</ele>
        <time>2011-07-28T11:27:57Z</time>
      </trkpt>
      <trkpt lat="43.28231" lon="6.33443">
        <ele>567.8</ele>
        <time>2011-07-28T11:28:04Z</time>
      </trkpt>
      <trkpt lat="43.28244" lon="6.33375">
        <ele>564.43</ele>
        <time>2011-07-28T11:28:11Z</time>
      </trkpt>
      <trkpt lat="43.28273" lon="6.33324">
        <ele>562.51</ele>
        <time>2011-07-28T11:28:17Z</time>
      </trkpt>
      <trkpt lat="43.28315" lon="6.33299">
        <ele>559.14</ele>
        <time>2011-07-28T11:28:23Z</time>
      </trkpt>
      <trkpt lat="43.28353" lon="6.33276">
        <ele>554.82</ele>
        <time>2011-07-28T11:28:54Z</time>
      </trkpt>
      <trkpt lat="43.28363" lon="6.33213">
        <ele>553.38</ele>
        <time>2011-07-28T11:29:06Z</time>
      </trkpt>
      <trkpt lat="43.28378" lon="6.33156">
        <ele>550.49</ele>
        <time>2011-07-28T11:29:14Z</time>
      </trkpt>
      <trkpt lat="43.28425" lon="6.33132">
        <ele>547.13</ele>
        <time>2011-07-28T11:29:21Z</time>
      </trkpt>
      <trkpt lat="43.28475" lon="6.33127">
        <ele>541.84</ele>
        <time>2011-07-28T11:29:29Z</time>
      </trkpt>
      <trkpt lat="43.28522" lon="6.33123">
        <ele>537.51</ele>
        <time>2011-07-28T11:29:36Z</time>
      </trkpt>
      <trkpt lat="43.28569" lon="6.3312">
        <ele>536.55</ele>
        <time>2011-07-28T11:29:43Z</time>
      </trkpt>
      <trkpt lat="43.28602" lon="6.33074">
        <ele>534.63</ele>
        <time>2011-07-28T11:29:50Z</time>
      </trkpt>
      <trkpt lat="43.28599" lon="6.33002">
        <ele>534.15</ele>
        <time>2011-07-28T11:29:57Z</time>
      </trkpt>
      <trkpt lat="43.2859" lon="6.32932">
        <ele>531.75</ele>
        <time>2011-07-28T11:30:04Z</time>
      </trkpt>
      <trkpt lat="43.2858" lon="6.32863">
        <ele>528.86</ele>
        <time>2011-07-28T11:30:11Z</time>
      </trkpt>
      <trkpt lat="43.28609" lon="6.3281">
        <ele>524.54</ele>
        <time>2011-07-28T11:30:20Z</time>
      </trkpt>
      <trkpt lat="43.2864" lon="6.32768">
        <ele>520.69</ele>
        <time>2011-07-28T11:32:02Z</time>
      </trkpt>
      <trkpt lat="43.28596" lon="6.32774">
        <ele>521.17</ele>
        <time>2011-07-28T11:32:46Z</time>
      </trkpt>
      <trkpt lat="43.28551" lon="6.32777">
        <ele>519.73</ele>
        <time>2011-07-28T11:33:11Z</time>
      </trkpt>
      <trkpt lat="43.28505" lon="6.3276">
        <ele>519.73</ele>
        <time>2011-07-28T11:33:39Z</time>
      </trkpt>
      <trkpt lat="43.28459" lon="6.32728">
        <ele>528.38</ele>
        <time>2011-07-28T11:34:02Z</time>
      </trkpt>
      <trkpt lat="43.28412" lon="6.32722">
        <ele>524.06</ele>
        <time>2011-07-28T11:34:31Z</time>
      </trkpt>
      <trkpt lat="43.28357" lon="6.32684">
        <ele>526.46</ele>
        <time>2011-07-28T11:35:03Z</time>
      </trkpt>
      <trkpt lat="43.28312" lon="6.32635">
        <ele>539.44</ele>
        <time>2011-07-28T11:36:22Z</time>
      </trkpt>
      <trkpt lat="43.283" lon="6.32574">
        <ele>538.48</ele>
        <time>2011-07-28T11:36:39Z</time>
      </trkpt>
      <trkpt lat="43.28299" lon="6.32512">
        <ele>537.51</ele>
        <time>2011-07-28T11:37:00Z</time>
      </trkpt>
      <trkpt lat="43.28308" lon="6.32444">
        <ele>532.23</ele>
        <time>2011-07-28T11:37:15Z</time>
      </trkpt>
      <trkpt lat="43.28315" lon="6.32378">
        <ele>529.82</ele>
        <time>2011-07-28T11:37:25Z</time>
      </trkpt>
      <trkpt lat="43.2831" lon="6.32305">
        <ele>530.79</ele>
        <time>2011-07-28T11:37:33Z</time>
      </trkpt>
      <trkpt lat="43.28302" lon="6.32244">
        <ele>533.67</ele>
        <time>2011-07-28T11:37:44Z</time>
      </trkpt>
      <trkpt lat="43.28283" lon="6.32185">
        <ele>534.63</ele>
        <time>2011-07-28T11:38:00Z</time>
      </trkpt>
      <trkpt lat="43.28273" lon="6.32125">
        <ele>538.96</ele>
        <time>2011-07-28T11:38:20Z</time>
      </trkpt>
      <trkpt lat="43.2826" lon="6.32065">
        <ele>545.69</ele>
        <time>2011-07-28T11:38:46Z</time>
      </trkpt>
      <trkpt lat="43.28236" lon="6.32012">
        <ele>552.9</ele>
        <time>2011-07-28T11:39:48Z</time>
      </trkpt>
      <trkpt lat="43.28264" lon="6.3196">
        <ele>553.86</ele>
        <time>2011-07-28T11:40:10Z</time>
      </trkpt>
      <trkpt lat="43.28307" lon="6.3193">
        <ele>553.86</ele>
        <time>2011-07-28T11:40:31Z</time>
      </trkpt>
      <trkpt lat="43.28342" lon="6.31888">
        <ele>553.86</ele>
        <time>2011-07-28T11:40:48Z</time>
      </trkpt>
      <trkpt lat="43.28364" lon="6.31832">
        <ele>557.22</ele>
        <time>2011-07-28T11:41:04Z</time>
      </trkpt>
      <trkpt lat="43.28381" lon="6.31773">
        <ele>561.07</ele>
        <time>2011-07-28T11:42:34Z</time>
      </trkpt>
      <trkpt lat="43.28402" lon="6.31716">
        <ele>565.87</ele>
        <time>2011-07-28T11:43:46Z</time>
      </trkpt>
      <trkpt lat="43.28419" lon="6.31655">
        <ele>572.12</ele>
        <time>2011-07-28T11:44:18Z</time>
      </trkpt>
      <trkpt lat="43.28424" lon="6.31596">
        <ele>573.56</ele>
        <time>2011-07-28T11:44:43Z</time>
      </trkpt>
      <trkpt lat="43.28425" lon="6.31534">
        <ele>576.93</ele>
        <time>2011-07-28T11:45:08Z</time>
      </trkpt>
      <trkpt lat="43.28427" lon="6.31474">
        <ele>581.25</ele>
        <time>2011-07-28T11:45:34Z</time>
      </trkpt>
      <trkpt lat="43.28455" lon="6.31422">
        <ele>585.58</ele>
        <time>2011-07-28T11:46:02Z</time>
      </trkpt>
      <trkpt lat="43.28499" lon="6.31394">
        <ele>587.5</ele>
        <time>2011-07-28T11:46:32Z</time>
      </trkpt>
      <trkpt lat="43.28511" lon="6.31336">
        <ele>596.64</ele>
        <time>2011-07-28T11:47:03Z</time>
      </trkpt>
      <trkpt lat="43.28514" lon="6.31274">
        <ele>603.85</ele>
        <time>2011-07-28T11:47:32Z</time>
      </trkpt>
      <trkpt lat="43.28521" lon="6.31215">
        <ele>609.13</ele>
        <time>2011-07-28T11:48:03Z</time>
      </trkpt>
      <trkpt lat="43.28488" lon="6.31201">
        <ele>598.56</ele>
        <time>2011-07-28T11:48:21Z</time>
      </trkpt>
      <trkpt lat="43.28444" lon="6.31177">
        <ele>600</ele>
        <time>2011-07-28T11:48:44Z</time>
      </trkpt>
      <trkpt lat="43.2841" lon="6.3113">
        <ele>601.92</ele>
        <time>2011-07-28T11:49:10Z</time>
      </trkpt>
      <trkpt lat="43.28418" lon="6.31113">
        <ele>607.69</ele>
        <time>2011-07-28T11:49:35Z</time>
      </trkpt>
      <trkpt lat="43.28456" lon="6.31152">
        <ele>611.06</ele>
        <time>2011-07-28T11:50:03Z</time>
      </trkpt>
      <trkpt lat="43.28501" lon="6.3116">
        <ele>619.23</ele>
        <time>2011-07-28T11:51:02Z</time>
      </trkpt>
      <trkpt lat="43.28548" lon="6.31155">
        <ele>624.51</ele>
        <time>2011-07-28T11:51:37Z</time>
      </trkpt>
      <trkpt lat="43.28583" lon="6.31205">
        <ele>629.32</ele>
        <time>2011-07-28T11:53:00Z</time>
      </trkpt>
      <trkpt lat="43.28594" lon="6.31268">
        <ele>632.68</ele>
        <time>2011-07-28T11:53:29Z</time>
      </trkpt>
      <trkpt lat="43.28609" lon="6.31328">
        <ele>636.05</ele>
        <time>2011-07-28T11:54:00Z</time>
      </trkpt>
      <trkpt lat="43.28622" lon="6.3139">
        <ele>639.41</ele>
        <time>2011-07-28T11:54:33Z</time>
      </trkpt>
      <trkpt lat="43.28639" lon="6.314">
        <ele>641.82</ele>
        <time>2011-07-28T11:55:03Z</time>
      </trkpt>
      <trkpt lat="43.2863" lon="6.31338">
        <ele>643.74</ele>
        <time>2011-07-28T11:55:32Z</time>
      </trkpt>
      <trkpt lat="43.28627" lon="6.31276">
        <ele>648.07</ele>
        <time>2011-07-28T11:56:06Z</time>
      </trkpt>
      <trkpt lat="43.28634" lon="6.31213">
        <ele>653.35</ele>
        <time>2011-07-28T11:56:38Z</time>
      </trkpt>
      <trkpt lat="43.28633" lon="6.3115">
        <ele>657.2</ele>
        <time>2011-07-28T11:57:12Z</time>
      </trkpt>
      <trkpt lat="43.28626" lon="6.31086">
        <ele>663.93</ele>
        <time>2011-07-28T11:57:42Z</time>
      </trkpt>
      <trkpt lat="43.28606" lon="6.31033">
        <ele>665.37</ele>
        <time>2011-07-28T11:58:16Z</time>
      </trkpt>
      <trkpt lat="43.28564" lon="6.31002">
        <ele>671.14</ele>
        <time>2011-07-28T11:58:49Z</time>
      </trkpt>
      <trkpt lat="43.28516" lon="6.30968">
        <ele>674.02</ele>
        <time>2011-07-28T11:59:38Z</time>
      </trkpt>
      <trkpt lat="43.28476" lon="6.30927">
        <ele>676.91</ele>
        <time>2011-07-28T12:00:07Z</time>
      </trkpt>
      <trkpt lat="43.28448" lon="6.3087">
        <ele>674.02</ele>
        <time>2011-07-28T12:00:24Z</time>
      </trkpt>
      <trkpt lat="43.28425" lon="6.30812">
        <ele>674.98</ele>
        <time>2011-07-28T12:00:36Z</time>
      </trkpt>
      <trkpt lat="43.28385" lon="6.30756">
        <ele>677.87</ele>
        <time>2011-07-28T12:00:54Z</time>
      </trkpt>
      <trkpt lat="43.28347" lon="6.30701">
        <ele>681.71</ele>
        <time>2011-07-28T12:01:06Z</time>
      </trkpt>
      <trkpt lat="43.28314" lon="6.30655">
        <ele>674.02</ele>
        <time>2011-07-28T12:01:15Z</time>
      </trkpt>
      <trkpt lat="43.28272" lon="6.30597">
        <ele>664.41</ele>
        <time>2011-07-28T12:01:24Z</time>
      </trkpt>
      <trkpt lat="43.2826" lon="6.30528">
        <ele>662.49</ele>
        <time>2011-07-28T12:01:36Z</time>
      </trkpt>
      <trkpt lat="43.28252" lon="6.30462">
        <ele>662.97</ele>
        <time>2011-07-28T12:01:44Z</time>
      </trkpt>
      <trkpt lat="43.28222" lon="6.30399">
        <ele>666.33</ele>
        <time>2011-07-28T12:02:31Z</time>
      </trkpt>
      <trkpt lat="43.28223" lon="6.30332">
        <ele>666.81</ele>
        <time>2011-07-28T12:02:42Z</time>
      </trkpt>
      <trkpt lat="43.28222" lon="6.3027">
        <ele>664.41</ele>
        <time>2011-07-28T12:02:52Z</time>
      </trkpt>
      <trkpt lat="43.28221" lon="6.30205">
        <ele>659.6</ele>
        <time>2011-07-28T12:03:04Z</time>
      </trkpt>
      <trkpt lat="43.28209" lon="6.30141">
        <ele>658.64</ele>
        <time>2011-07-28T12:03:23Z</time>
      </trkpt>
      <trkpt lat="43.28189" lon="6.30078">
        <ele>661.52</ele>
        <time>2011-07-28T12:04:06Z</time>
      </trkpt>
      <trkpt lat="43.2818" lon="6.3001">
        <ele>664.41</ele>
        <time>2011-07-28T12:04:27Z</time>
      </trkpt>
      <trkpt lat="43.28178" lon="6.29944">
        <ele>667.77</ele>
        <time>2011-07-28T12:04:44Z</time>
      </trkpt>
      <trkpt lat="43.2816" lon="6.29884">
        <ele>664.89</ele>
        <time>2011-07-28T12:04:58Z</time>
      </trkpt>
      <trkpt lat="43.2814" lon="6.29819">
        <ele>659.12</ele>
        <time>2011-07-28T12:05:21Z</time>
      </trkpt>
      <trkpt lat="43.28105" lon="6.29758">
        <ele>665.37</ele>
        <time>2011-07-28T12:05:50Z</time>
      </trkpt>
      <trkpt lat="43.2806" lon="6.29719">
        <ele>676.42</ele>
        <time>2011-07-28T12:06:16Z</time>
      </trkpt>
      <trkpt lat="43.28013" lon="6.29705">
        <ele>678.35</ele>
        <time>2011-07-28T12:06:42Z</time>
      </trkpt>
      <trkpt lat="43.27964" lon="6.29705">
        <ele>683.63</ele>
        <time>2011-07-28T12:07:08Z</time>
      </trkpt>
      <trkpt lat="43.27918" lon="6.29713">
        <ele>689.4</ele>
        <time>2011-07-28T12:07:34Z</time>
      </trkpt>
      <trkpt lat="43.27902" lon="6.29661">
        <ele>692.29</ele>
        <time>2011-07-28T12:08:02Z</time>
      </trkpt>
      <trkpt lat="43.27943" lon="6.29624">
        <ele>694.69</ele>
        <time>2011-07-28T12:09:03Z</time>
      </trkpt>
      <trkpt lat="43.27973" lon="6.2958">
        <ele>695.65</ele>
        <time>2011-07-28T12:09:28Z</time>
      </trkpt>
      <trkpt lat="43.27995" lon="6.29522">
        <ele>699.98</ele>
        <time>2011-07-28T12:09:56Z</time>
      </trkpt>
      <trkpt lat="43.28011" lon="6.29464">
        <ele>704.3</ele>
        <time>2011-07-28T12:10:22Z</time>
      </trkpt>
      <trkpt lat="43.28011" lon="6.294">
        <ele>703.82</ele>
        <time>2011-07-28T12:10:41Z</time>
      </trkpt>
      <trkpt lat="43.28006" lon="6.29335">
        <ele>703.34</ele>
        <time>2011-07-28T12:11:00Z</time>
      </trkpt>
      <trkpt lat="43.27991" lon="6.29273">
        <ele>708.63</ele>
        <time>2011-07-28T12:11:19Z</time>
      </trkpt>
      <trkpt lat="43.2798" lon="6.29209">
        <ele>716.32</ele>
        <time>2011-07-28T12:11:45Z</time>
      </trkpt>
      <trkpt lat="43.28005" lon="6.29155">
        <ele>720.16</ele>
        <time>2011-07-28T12:12:10Z</time>
      </trkpt>
      <trkpt lat="43.2802" lon="6.29098">
        <ele>721.61</ele>
        <time>2011-07-28T12:12:38Z</time>
      </trkpt>
      <trkpt lat="43.28028" lon="6.29038">
        <ele>724.49</ele>
        <time>2011-07-28T12:13:02Z</time>
      </trkpt>
      <trkpt lat="43.28079" lon="6.29057">
        <ele>720.65</ele>
        <time>2011-07-28T12:13:31Z</time>
      </trkpt>
      <trkpt lat="43.28126" lon="6.29096">
        <ele>728.82</ele>
        <time>2011-07-28T12:14:05Z</time>
      </trkpt>
      <trkpt lat="43.28168" lon="6.29149">
        <ele>741.31</ele>
        <time>2011-07-28T12:14:43Z</time>
      </trkpt>
      <trkpt lat="43.28181" lon="6.2922">
        <ele>745.64</ele>
        <time>2011-07-28T12:15:36Z</time>
      </trkpt>
      <trkpt lat="43.28191" lon="6.2929">
        <ele>751.89</ele>
        <time>2011-07-28T12:16:06Z</time>
      </trkpt>
      <trkpt lat="43.28214" lon="6.2936">
        <ele>761.98</ele>
        <time>2011-07-28T12:16:43Z</time>
      </trkpt>
      <trkpt lat="43.28229" lon="6.29429">
        <ele>762.46</ele>
        <time>2011-07-28T12:17:28Z</time>
      </trkpt>
      <trkpt lat="43.28208" lon="6.29479">
        <ele>760.54</ele>
        <time>2011-07-28T12:17:58Z</time>
      </trkpt>
      <trkpt lat="43.28191" lon="6.29414">
        <ele>761.02</ele>
        <time>2011-07-28T12:18:54Z</time>
      </trkpt>
      <trkpt lat="43.28161" lon="6.29355">
        <ele>768.71</ele>
        <time>2011-07-28T12:19:25Z</time>
      </trkpt>
      <trkpt lat="43.28133" lon="6.29299">
        <ele>769.19</ele>
        <time>2011-07-28T12:20:38Z</time>
      </trkpt>
      <trkpt lat="43.28122" lon="6.29289">
        <ele>765.83</ele>
        <time>2011-07-28T12:30:40Z</time>
      </trkpt>
      <trkpt lat="43.28134" lon="6.29297">
        <ele>771.11</ele>
        <time>2011-07-28T12:35:09Z</time>
      </trkpt>
      <trkpt lat="43.28158" lon="6.29353">
        <ele>770.63</ele>
        <time>2011-07-28T12:35:31Z</time>
      </trkpt>
      <trkpt lat="43.28159" lon="6.29416">
        <ele>767.75</ele>
        <time>2011-07-28T12:36:05Z</time>
      </trkpt>
      <trkpt lat="43.28164" lon="6.29405">
        <ele>769.67</ele>
        <time>2011-07-28T12:36:35Z</time>
      </trkpt>
      <trkpt lat="43.28181" lon="6.29383">
        <ele>761.02</ele>
        <time>2011-07-28T12:37:02Z</time>
      </trkpt>
      <trkpt lat="43.28179" lon="6.29449">
        <ele>762.94</ele>
        <time>2011-07-28T12:37:26Z</time>
      </trkpt>
      <trkpt lat="43.28155" lon="6.29454">
        <ele>761.98</ele>
        <time>2011-07-28T12:38:22Z</time>
      </trkpt>
      <trkpt lat="43.28174" lon="6.29438">
        <ele>766.79</ele>
        <time>2011-07-28T12:59:12Z</time>
      </trkpt>
      <trkpt lat="43.28207" lon="6.2948">
        <ele>763.42</ele>
        <time>2011-07-28T12:59:32Z</time>
      </trkpt>
      <trkpt lat="43.2823" lon="6.29434">
        <ele>759.1</ele>
        <time>2011-07-28T12:59:40Z</time>
      </trkpt>
      <trkpt lat="43.28211" lon="6.29362">
        <ele>756.21</ele>
        <time>2011-07-28T12:59:48Z</time>
      </trkpt>
      <trkpt lat="43.28189" lon="6.29304">
        <ele>755.25</ele>
        <time>2011-07-28T12:59:55Z</time>
      </trkpt>
      <trkpt lat="43.28179" lon="6.29237">
        <ele>754.77</ele>
        <time>2011-07-28T13:00:02Z</time>
      </trkpt>
      <trkpt lat="43.28168" lon="6.29177">
        <ele>753.33</ele>
        <time>2011-07-28T13:00:12Z</time>
      </trkpt>
      <trkpt lat="43.28138" lon="6.29123">
        <ele>752.85</ele>
        <time>2011-07-28T13:00:20Z</time>
      </trkpt>
      <trkpt lat="43.28096" lon="6.29085">
        <ele>751.89</ele>
        <time>2011-07-28T13:00:29Z</time>
      </trkpt>
      <trkpt lat="43.28055" lon="6.29051">
        <ele>752.37</ele>
        <time>2011-07-28T13:00:36Z</time>
      </trkpt>
      <trkpt lat="43.28017" lon="6.29052">
        <ele>742.28</ele>
        <time>2011-07-28T13:00:46Z</time>
      </trkpt>
      <trkpt lat="43.28014" lon="6.29122">
        <ele>734.1</ele>
        <time>2011-07-28T13:00:56Z</time>
      </trkpt>
      <trkpt lat="43.27991" lon="6.29181">
        <ele>728.34</ele>
        <time>2011-07-28T13:01:04Z</time>
      </trkpt>
      <trkpt lat="43.27979" lon="6.29238">
        <ele>723.05</ele>
        <time>2011-07-28T13:01:12Z</time>
      </trkpt>
      <trkpt lat="43.27992" lon="6.29303">
        <ele>719.2</ele>
        <time>2011-07-28T13:01:18Z</time>
      </trkpt>
      <trkpt lat="43.28006" lon="6.29367">
        <ele>718.24</ele>
        <time>2011-07-28T13:01:24Z</time>
      </trkpt>
      <trkpt lat="43.2801" lon="6.29429">
        <ele>716.32</ele>
        <time>2011-07-28T13:01:30Z</time>
      </trkpt>
      <trkpt lat="43.28004" lon="6.29491">
        <ele>715.36</ele>
        <time>2011-07-28T13:01:36Z</time>
      </trkpt>
      <trkpt lat="43.27984" lon="6.29549">
        <ele>712.47</ele>
        <time>2011-07-28T13:01:42Z</time>
      </trkpt>
      <trkpt lat="43.27961" lon="6.29606">
        <ele>707.67</ele>
        <time>2011-07-28T13:01:48Z</time>
      </trkpt>
      <trkpt lat="43.27924" lon="6.29642">
        <ele>700.94</ele>
        <time>2011-07-28T13:01:55Z</time>
      </trkpt>
      <trkpt lat="43.27899" lon="6.29692">
        <ele>696.13</ele>
        <time>2011-07-28T13:02:03Z</time>
      </trkpt>
      <trkpt lat="43.27895" lon="6.29697">
        <ele>693.25</ele>
        <time>2011-07-28T13:02:34Z</time>
      </trkpt>
      <trkpt lat="43.27901" lon="6.29631">
        <ele>690.36</ele>
        <time>2011-07-28T13:02:43Z</time>
      </trkpt>
      <trkpt lat="43.2793" lon="6.29583">
        <ele>686.52</ele>
        <time>2011-07-28T13:02:49Z</time>
      </trkpt>
      <trkpt lat="43.2795" lon="6.2952">
        <ele>682.67</ele>
        <time>2011-07-28T13:02:56Z</time>
      </trkpt>
      <trkpt lat="43.27957" lon="6.29457">
        <ele>678.35</ele>
        <time>2011-07-28T13:03:02Z</time>
      </trkpt>
      <trkpt lat="43.27941" lon="6.29389">
        <ele>673.54</ele>
        <time>2011-07-28T13:03:09Z</time>
      </trkpt>
      <trkpt lat="43.27925" lon="6.29331">
        <ele>668.25</ele>
        <time>2011-07-28T13:03:15Z</time>
      </trkpt>
      <trkpt lat="43.27905" lon="6.29262">
        <ele>664.89</ele>
        <time>2011-07-28T13:03:21Z</time>
      </trkpt>
      <trkpt lat="43.27884" lon="6.29201">
        <ele>662.49</ele>
        <time>2011-07-28T13:03:27Z</time>
      </trkpt>
      <trkpt lat="43.27871" lon="6.29222">
        <ele>658.64</ele>
        <time>2011-07-28T13:03:40Z</time>
      </trkpt>
      <trkpt lat="43.27892" lon="6.29292">
        <ele>655.28</ele>
        <time>2011-07-28T13:03:48Z</time>
      </trkpt>
      <trkpt lat="43.27892" lon="6.29357">
        <ele>652.39</ele>
        <time>2011-07-28T13:03:55Z</time>
      </trkpt>
      <trkpt lat="43.27887" lon="6.2942">
        <ele>647.59</ele>
        <time>2011-07-28T13:04:02Z</time>
      </trkpt>
      <trkpt lat="43.2787" lon="6.29475">
        <ele>641.34</ele>
        <time>2011-07-28T13:04:10Z</time>
      </trkpt>
      <trkpt lat="43.27819" lon="6.29483">
        <ele>637.49</ele>
        <time>2011-07-28T13:04:17Z</time>
      </trkpt>
      <trkpt lat="43.27787" lon="6.29523">
        <ele>632.2</ele>
        <time>2011-07-28T13:04:25Z</time>
      </trkpt>
      <trkpt lat="43.27767" lon="6.29591">
        <ele>627.4</ele>
        <time>2011-07-28T13:04:31Z</time>
      </trkpt>
      <trkpt lat="43.27736" lon="6.29642">
        <ele>623.55</ele>
        <time>2011-07-28T13:04:37Z</time>
      </trkpt>
      <trkpt lat="43.2769" lon="6.29676">
        <ele>620.67</ele>
        <time>2011-07-28T13:04:43Z</time>
      </trkpt>
      <trkpt lat="43.27643" lon="6.29695">
        <ele>617.78</ele>
        <time>2011-07-28T13:04:49Z</time>
      </trkpt>
      <trkpt lat="43.27597" lon="6.29711">
        <ele>615.38</ele>
        <time>2011-07-28T13:04:55Z</time>
      </trkpt>
      <trkpt lat="43.27557" lon="6.29749">
        <ele>607.21</ele>
        <time>2011-07-28T13:05:02Z</time>
      </trkpt>
      <trkpt lat="43.2756" lon="6.29814">
        <ele>602.88</ele>
        <time>2011-07-28T13:05:09Z</time>
      </trkpt>
      <trkpt lat="43.27577" lon="6.29884">
        <ele>597.6</ele>
        <time>2011-07-28T13:05:15Z</time>
      </trkpt>
      <trkpt lat="43.2759" lon="6.29952">
        <ele>592.79</ele>
        <time>2011-07-28T13:05:21Z</time>
      </trkpt>
      <trkpt lat="43.2759" lon="6.30019">
        <ele>589.43</ele>
        <time>2011-07-28T13:05:27Z</time>
      </trkpt>
      <trkpt lat="43.27563" lon="6.30062">
        <ele>584.14</ele>
        <time>2011-07-28T13:05:35Z</time>
      </trkpt>
      <trkpt lat="43.27517" lon="6.3007">
        <ele>580.29</ele>
        <time>2011-07-28T13:05:42Z</time>
      </trkpt>
      <trkpt lat="43.27464" lon="6.30084">
        <ele>576.45</ele>
        <time>2011-07-28T13:05:48Z</time>
      </trkpt>
      <trkpt lat="43.2741" lon="6.30095">
        <ele>573.08</ele>
        <time>2011-07-28T13:05:53Z</time>
      </trkpt>
      <trkpt lat="43.27362" lon="6.30105">
        <ele>565.39</ele>
        <time>2011-07-28T13:05:58Z</time>
      </trkpt>
      <trkpt lat="43.27317" lon="6.30129">
        <ele>556.26</ele>
        <time>2011-07-28T13:06:04Z</time>
      </trkpt>
      <trkpt lat="43.27273" lon="6.30114">
        <ele>550.97</ele>
        <time>2011-07-28T13:06:11Z</time>
      </trkpt>
      <trkpt lat="43.27225" lon="6.30086">
        <ele>545.2</ele>
        <time>2011-07-28T13:06:18Z</time>
      </trkpt>
      <trkpt lat="43.27179" lon="6.30093">
        <ele>540.88</ele>
        <time>2011-07-28T13:06:23Z</time>
      </trkpt>
      <trkpt lat="43.2713" lon="6.30093">
        <ele>535.59</ele>
        <time>2011-07-28T13:06:30Z</time>
      </trkpt>
      <trkpt lat="43.27105" lon="6.30048">
        <ele>534.15</ele>
        <time>2011-07-28T13:07:52Z</time>
      </trkpt>
      <trkpt lat="43.27087" lon="6.30069">
        <ele>538.48</ele>
        <time>2011-07-28T13:08:37Z</time>
      </trkpt>
      <trkpt lat="43.27107" lon="6.30054">
        <ele>533.67</ele>
        <time>2011-07-28T13:09:54Z</time>
      </trkpt>
      <trkpt lat="43.2711" lon="6.29987">
        <ele>532.23</ele>
        <time>2011-07-28T13:10:06Z</time>
      </trkpt>
      <trkpt lat="43.27123" lon="6.29917">
        <ele>529.82</ele>
        <time>2011-07-28T13:10:14Z</time>
      </trkpt>
      <trkpt lat="43.2712" lon="6.29851">
        <ele>527.42</ele>
        <time>2011-07-28T13:10:20Z</time>
      </trkpt>
      <trkpt lat="43.27108" lon="6.2978">
        <ele>524.54</ele>
        <time>2011-07-28T13:10:26Z</time>
      </trkpt>
      <trkpt lat="43.27091" lon="6.29716">
        <ele>522.13</ele>
        <time>2011-07-28T13:10:32Z</time>
      </trkpt>
      <trkpt lat="43.27071" lon="6.29648">
        <ele>520.21</ele>
        <time>2011-07-28T13:10:38Z</time>
      </trkpt>
      <trkpt lat="43.27045" lon="6.29605">
        <ele>519.25</ele>
        <time>2011-07-28T13:10:44Z</time>
      </trkpt>
      <trkpt lat="43.27014" lon="6.29565">
        <ele>519.25</ele>
        <time>2011-07-28T13:10:55Z</time>
      </trkpt>
      <trkpt lat="43.26988" lon="6.29511">
        <ele>513.96</ele>
        <time>2011-07-28T13:11:10Z</time>
      </trkpt>
      <trkpt lat="43.26957" lon="6.29461">
        <ele>512.52</ele>
        <time>2011-07-28T13:11:31Z</time>
      </trkpt>
      <trkpt lat="43.26929" lon="6.29413">
        <ele>510.12</ele>
        <time>2011-07-28T13:11:47Z</time>
      </trkpt>
      <trkpt lat="43.26913" lon="6.29351">
        <ele>517.33</ele>
        <time>2011-07-28T13:12:04Z</time>
      </trkpt>
      <trkpt lat="43.26897" lon="6.29291">
        <ele>522.61</ele>
        <time>2011-07-28T13:12:20Z</time>
      </trkpt>
      <trkpt lat="43.26883" lon="6.29231">
        <ele>524.54</ele>
        <time>2011-07-28T13:12:34Z</time>
      </trkpt>
      <trkpt lat="43.26871" lon="6.29169">
        <ele>527.9</ele>
        <time>2011-07-28T13:12:56Z</time>
      </trkpt>
      <trkpt lat="43.26844" lon="6.29118">
        <ele>529.82</ele>
        <time>2011-07-28T13:13:24Z</time>
      </trkpt>
      <trkpt lat="43.26809" lon="6.29079">
        <ele>520.69</ele>
        <time>2011-07-28T13:14:00Z</time>
      </trkpt>
      <trkpt lat="43.26769" lon="6.29049">
        <ele>529.82</ele>
        <time>2011-07-28T13:14:27Z</time>
      </trkpt>
      <trkpt lat="43.26725" lon="6.29037">
        <ele>534.63</ele>
        <time>2011-07-28T13:14:43Z</time>
      </trkpt>
      <trkpt lat="43.26685" lon="6.29008">
        <ele>534.15</ele>
        <time>2011-07-28T13:14:55Z</time>
      </trkpt>
      <trkpt lat="43.26653" lon="6.28968">
        <ele>533.67</ele>
        <time>2011-07-28T13:15:16Z</time>
      </trkpt>
      <trkpt lat="43.26613" lon="6.28936">
        <ele>543.76</ele>
        <time>2011-07-28T13:15:38Z</time>
      </trkpt>
      <trkpt lat="43.2658" lon="6.28892">
        <ele>551.93</ele>
        <time>2011-07-28T13:16:55Z</time>
      </trkpt>
      <trkpt lat="43.26562" lon="6.28825">
        <ele>543.28</ele>
        <time>2011-07-28T13:17:13Z</time>
      </trkpt>
      <trkpt lat="43.26549" lon="6.28757">
        <ele>537.51</ele>
        <time>2011-07-28T13:17:22Z</time>
      </trkpt>
      <trkpt lat="43.26535" lon="6.28696">
        <ele>536.55</ele>
        <time>2011-07-28T13:17:32Z</time>
      </trkpt>
      <trkpt lat="43.26517" lon="6.28635">
        <ele>533.67</ele>
        <time>2011-07-28T13:17:41Z</time>
      </trkpt>
      <trkpt lat="43.26522" lon="6.28568">
        <ele>529.34</ele>
        <time>2011-07-28T13:17:50Z</time>
      </trkpt>
      <trkpt lat="43.26541" lon="6.28507">
        <ele>526.46</ele>
        <time>2011-07-28T13:17:57Z</time>
      </trkpt>
      <trkpt lat="43.26547" lon="6.28437">
        <ele>526.46</ele>
        <time>2011-07-28T13:18:04Z</time>
      </trkpt>
      <trkpt lat="43.26526" lon="6.28383">
        <ele>526.94</ele>
        <time>2011-07-28T13:18:15Z</time>
      </trkpt>
      <trkpt lat="43.26513" lon="6.28308">
        <ele>531.75</ele>
        <time>2011-07-28T13:18:36Z</time>
      </trkpt>
      <trkpt lat="43.265" lon="6.2824">
        <ele>538.96</ele>
        <time>2011-07-28T13:19:00Z</time>
      </trkpt>
      <trkpt lat="43.26482" lon="6.28184">
        <ele>540.88</ele>
        <time>2011-07-28T13:19:18Z</time>
      </trkpt>
      <trkpt lat="43.26451" lon="6.28129">
        <ele>537.03</ele>
        <time>2011-07-28T13:19:30Z</time>
      </trkpt>
      <trkpt lat="43.26432" lon="6.28069">
        <ele>533.67</ele>
        <time>2011-07-28T13:19:38Z</time>
      </trkpt>
      <trkpt lat="43.26414" lon="6.28009">
        <ele>530.3</ele>
        <time>2011-07-28T13:19:45Z</time>
      </trkpt>
      <trkpt lat="43.26398" lon="6.27937">
        <ele>527.9</ele>
        <time>2011-07-28T13:19:52Z</time>
      </trkpt>
      <trkpt lat="43.26377" lon="6.27875">
        <ele>523.58</ele>
        <time>2011-07-28T13:19:58Z</time>
      </trkpt>
      <trkpt lat="43.26369" lon="6.27815">
        <ele>519.73</ele>
        <time>2011-07-28T13:20:04Z</time>
      </trkpt>
      <trkpt lat="43.26394" lon="6.27753">
        <ele>514.92</ele>
        <time>2011-07-28T13:20:11Z</time>
      </trkpt>
      <trkpt lat="43.26399" lon="6.27687">
        <ele>512.04</ele>
        <time>2011-07-28T13:20:17Z</time>
      </trkpt>
      <trkpt lat="43.26401" lon="6.27623">
        <ele>508.67</ele>
        <time>2011-07-28T13:20:28Z</time>
      </trkpt>
      <trkpt lat="43.26372" lon="6.2757">
        <ele>503.39</ele>
        <time>2011-07-28T13:20:36Z</time>
      </trkpt>
      <trkpt lat="43.26347" lon="6.27505">
        <ele>499.06</ele>
        <time>2011-07-28T13:20:43Z</time>
      </trkpt>
      <trkpt lat="43.26343" lon="6.27437">
        <ele>500.5</ele>
        <time>2011-07-28T13:20:50Z</time>
      </trkpt>
      <trkpt lat="43.2636" lon="6.27377">
        <ele>501.95</ele>
        <time>2011-07-28T13:21:00Z</time>
      </trkpt>
      <trkpt lat="43.26369" lon="6.27311">
        <ele>503.87</ele>
        <time>2011-07-28T13:21:18Z</time>
      </trkpt>
      <trkpt lat="43.26374" lon="6.27248">
        <ele>504.35</ele>
        <time>2011-07-28T13:21:29Z</time>
      </trkpt>
      <trkpt lat="43.26377" lon="6.27181">
        <ele>504.83</ele>
        <time>2011-07-28T13:21:41Z</time>
      </trkpt>
      <trkpt lat="43.26377" lon="6.27121">
        <ele>507.23</ele>
        <time>2011-07-28T13:21:54Z</time>
      </trkpt>
      <trkpt lat="43.26366" lon="6.27053">
        <ele>508.67</ele>
        <time>2011-07-28T13:22:08Z</time>
      </trkpt>
      <trkpt lat="43.26362" lon="6.26981">
        <ele>511.56</ele>
        <time>2011-07-28T13:22:21Z</time>
      </trkpt>
      <trkpt lat="43.26346" lon="6.26919">
        <ele>510.12</ele>
        <time>2011-07-28T13:22:33Z</time>
      </trkpt>
      <trkpt lat="43.26333" lon="6.26846">
        <ele>510.6</ele>
        <time>2011-07-28T13:22:46Z</time>
      </trkpt>
      <trkpt lat="43.26319" lon="6.26782">
        <ele>512.04</ele>
        <time>2011-07-28T13:22:59Z</time>
      </trkpt>
      <trkpt lat="43.26337" lon="6.26716">
        <ele>513.48</ele>
        <time>2011-07-28T13:23:47Z</time>
      </trkpt>
      <trkpt lat="43.26352" lon="6.26656">
        <ele>515.88</ele>
        <time>2011-07-28T13:24:00Z</time>
      </trkpt>
      <trkpt lat="43.26349" lon="6.2659">
        <ele>514.44</ele>
        <time>2011-07-28T13:24:14Z</time>
      </trkpt>
      <trkpt lat="43.26348" lon="6.26525">
        <ele>511.56</ele>
        <time>2011-07-28T13:24:29Z</time>
      </trkpt>
      <trkpt lat="43.26344" lon="6.26455">
        <ele>511.56</ele>
        <time>2011-07-28T13:24:47Z</time>
      </trkpt>
      <trkpt lat="43.26331" lon="6.26383">
        <ele>510.6</ele>
        <time>2011-07-28T13:25:05Z</time>
      </trkpt>
      <trkpt lat="43.26316" lon="6.26351">
        <ele>517.33</ele>
        <time>2011-07-28T13:26:25Z</time>
      </trkpt>
      <trkpt lat="43.26286" lon="6.26395">
        <ele>515.4</ele>
        <time>2011-07-28T13:27:10Z</time>
      </trkpt>
      <trkpt lat="43.2625" lon="6.2644">
        <ele>512.04</ele>
        <time>2011-07-28T13:27:18Z</time>
      </trkpt>
      <trkpt lat="43.26218" lon="6.26486">
        <ele>509.64</ele>
        <time>2011-07-28T13:27:27Z</time>
      </trkpt>
      <trkpt lat="43.26235" lon="6.26545">
        <ele>505.79</ele>
        <time>2011-07-28T13:27:36Z</time>
      </trkpt>
      <trkpt lat="43.26251" lon="6.26615">
        <ele>503.39</ele>
        <time>2011-07-28T13:27:43Z</time>
      </trkpt>
      <trkpt lat="43.26252" lon="6.26678">
        <ele>500.02</ele>
        <time>2011-07-28T13:27:49Z</time>
      </trkpt>
      <trkpt lat="43.26254" lon="6.2675">
        <ele>497.62</ele>
        <time>2011-07-28T13:27:55Z</time>
      </trkpt>
      <trkpt lat="43.26234" lon="6.26808">
        <ele>494.26</ele>
        <time>2011-07-28T13:28:01Z</time>
      </trkpt>
      <trkpt lat="43.26213" lon="6.26871">
        <ele>489.45</ele>
        <time>2011-07-28T13:28:07Z</time>
      </trkpt>
      <trkpt lat="43.2619" lon="6.26931">
        <ele>485.12</ele>
        <time>2011-07-28T13:28:14Z</time>
      </trkpt>
      <trkpt lat="43.26157" lon="6.26972">
        <ele>479.84</ele>
        <time>2011-07-28T13:28:20Z</time>
      </trkpt>
      <trkpt lat="43.26124" lon="6.27014">
        <ele>475.51</ele>
        <time>2011-07-28T13:28:29Z</time>
      </trkpt>
      <trkpt lat="43.26145" lon="6.27075">
        <ele>470.22</ele>
        <time>2011-07-28T13:28:37Z</time>
      </trkpt>
      <trkpt lat="43.2617" lon="6.27131">
        <ele>464.93</ele>
        <time>2011-07-28T13:28:47Z</time>
      </trkpt>
      <trkpt lat="43.26149" lon="6.2719">
        <ele>463.01</ele>
        <time>2011-07-28T13:28:55Z</time>
      </trkpt>
      <trkpt lat="43.26112" lon="6.27243">
        <ele>458.69</ele>
        <time>2011-07-28T13:29:02Z</time>
      </trkpt>
      <trkpt lat="43.26085" lon="6.2725">
        <ele>453.88</ele>
        <time>2011-07-28T13:29:16Z</time>
      </trkpt>
      <trkpt lat="43.26118" lon="6.272">
        <ele>450.03</ele>
        <time>2011-07-28T13:29:25Z</time>
      </trkpt>
      <trkpt lat="43.2614" lon="6.2714">
        <ele>447.63</ele>
        <time>2011-07-28T13:29:32Z</time>
      </trkpt>
      <trkpt lat="43.26105" lon="6.27089">
        <ele>441.38</ele>
        <time>2011-07-28T13:29:41Z</time>
      </trkpt>
      <trkpt lat="43.26065" lon="6.27042">
        <ele>439.94</ele>
        <time>2011-07-28T13:29:48Z</time>
      </trkpt>
      <trkpt lat="43.26027" lon="6.26995">
        <ele>434.65</ele>
        <time>2011-07-28T13:29:55Z</time>
      </trkpt>
      <trkpt lat="43.25984" lon="6.26967">
        <ele>432.25</ele>
        <time>2011-07-28T13:30:01Z</time>
      </trkpt>
      <trkpt lat="43.2594" lon="6.26946">
        <ele>428.4</ele>
        <time>2011-07-28T13:30:07Z</time>
      </trkpt>
      <trkpt lat="43.25891" lon="6.2693">
        <ele>424.08</ele>
        <time>2011-07-28T13:30:15Z</time>
      </trkpt>
      <trkpt lat="43.25847" lon="6.2691">
        <ele>420.71</ele>
        <time>2011-07-28T13:30:26Z</time>
      </trkpt>
      <trkpt lat="43.25812" lon="6.26933">
        <ele>422.16</ele>
        <time>2011-07-28T13:30:50Z</time>
      </trkpt>
      <trkpt lat="43.25773" lon="6.26963">
        <ele>428.89</ele>
        <time>2011-07-28T13:32:02Z</time>
      </trkpt>
      <trkpt lat="43.2573" lon="6.26987">
        <ele>433.69</ele>
        <time>2011-07-28T13:32:31Z</time>
      </trkpt>
      <trkpt lat="43.25685" lon="6.26971">
        <ele>439.46</ele>
        <time>2011-07-28T13:33:05Z</time>
      </trkpt>
      <trkpt lat="43.25695" lon="6.26977">
        <ele>441.38</ele>
        <time>2011-07-28T13:34:55Z</time>
      </trkpt>
      <trkpt lat="43.25747" lon="6.26975">
        <ele>435.13</ele>
        <time>2011-07-28T13:35:06Z</time>
      </trkpt>
      <trkpt lat="43.25787" lon="6.26946">
        <ele>428.89</ele>
        <time>2011-07-28T13:35:15Z</time>
      </trkpt>
      <trkpt lat="43.2583" lon="6.26909">
        <ele>426.96</ele>
        <time>2011-07-28T13:35:28Z</time>
      </trkpt>
      <trkpt lat="43.25832" lon="6.26912">
        <ele>432.73</ele>
        <time>2011-07-28T13:38:34Z</time>
      </trkpt>
      <trkpt lat="43.25808" lon="6.26943">
        <ele>429.37</ele>
        <time>2011-07-28T13:40:10Z</time>
      </trkpt>
      <trkpt lat="43.25774" lon="6.26987">
        <ele>419.75</ele>
        <time>2011-07-28T13:40:29Z</time>
      </trkpt>
      <trkpt lat="43.25736" lon="6.27026">
        <ele>416.87</ele>
        <time>2011-07-28T13:40:43Z</time>
      </trkpt>
      <trkpt lat="43.25686" lon="6.27026">
        <ele>412.54</ele>
        <time>2011-07-28T13:40:56Z</time>
      </trkpt>
      <trkpt lat="43.25641" lon="6.27009">
        <ele>415.43</ele>
        <time>2011-07-28T13:42:00Z</time>
      </trkpt>
      <trkpt lat="43.25593" lon="6.26994">
        <ele>411.1</ele>
        <time>2011-07-28T13:42:23Z</time>
      </trkpt>
      <trkpt lat="43.2558" lon="6.26991">
        <ele>416.87</ele>
        <time>2011-07-28T13:43:19Z</time>
      </trkpt>
      <trkpt lat="43.25581" lon="6.27004">
        <ele>412.06</ele>
        <time>2011-07-28T13:43:51Z</time>
      </trkpt>
      <trkpt lat="43.2563" lon="6.27036">
        <ele>405.81</ele>
        <time>2011-07-28T13:44:09Z</time>
      </trkpt>
      <trkpt lat="43.25671" lon="6.27069">
        <ele>399.57</ele>
        <time>2011-07-28T13:44:20Z</time>
      </trkpt>
      <trkpt lat="43.25715" lon="6.27098">
        <ele>395.24</ele>
        <time>2011-07-28T13:44:29Z</time>
      </trkpt>
      <trkpt lat="43.25763" lon="6.27095">
        <ele>395.72</ele>
        <time>2011-07-28T13:44:38Z</time>
      </trkpt>
      <trkpt lat="43.25812" lon="6.27065">
        <ele>388.51</ele>
        <time>2011-07-28T13:44:45Z</time>
      </trkpt>
      <trkpt lat="43.25849" lon="6.27089">
        <ele>388.99</ele>
        <time>2011-07-28T13:44:55Z</time>
      </trkpt>
      <trkpt lat="43.25895" lon="6.27101">
        <ele>389.47</ele>
        <time>2011-07-28T13:45:04Z</time>
      </trkpt>
      <trkpt lat="43.25917" lon="6.27137">
        <ele>392.84</ele>
        <time>2011-07-28T13:45:15Z</time>
      </trkpt>
      <trkpt lat="43.25889" lon="6.27183">
        <ele>388.51</ele>
        <time>2011-07-28T13:45:26Z</time>
      </trkpt>
      <trkpt lat="43.25867" lon="6.27242">
        <ele>382.74</ele>
        <time>2011-07-28T13:45:35Z</time>
      </trkpt>
      <trkpt lat="43.25863" lon="6.27302">
        <ele>376.01</ele>
        <time>2011-07-28T13:45:48Z</time>
      </trkpt>
      <trkpt lat="43.25878" lon="6.27363">
        <ele>365.92</ele>
        <time>2011-07-28T13:46:05Z</time>
      </trkpt>
      <trkpt lat="43.25854" lon="6.27414">
        <ele>358.71</ele>
        <time>2011-07-28T13:46:23Z</time>
      </trkpt>
      <trkpt lat="43.25834" lon="6.27473">
        <ele>348.13</ele>
        <time>2011-07-28T13:46:35Z</time>
      </trkpt>
      <trkpt lat="43.25829" lon="6.27528">
        <ele>337.08</ele>
        <time>2011-07-28T13:46:52Z</time>
      </trkpt>
      <trkpt lat="43.25862" lon="6.27578">
        <ele>329.87</ele>
        <time>2011-07-28T13:47:02Z</time>
      </trkpt>
      <trkpt lat="43.25872" lon="6.27623">
        <ele>323.62</ele>
        <time>2011-07-28T13:47:16Z</time>
      </trkpt>
      <trkpt lat="43.25835" lon="6.27576">
        <ele>317.37</ele>
        <time>2011-07-28T13:47:30Z</time>
      </trkpt>
      <trkpt lat="43.25791" lon="6.27558">
        <ele>312.57</ele>
        <time>2011-07-28T13:47:42Z</time>
      </trkpt>
      <trkpt lat="43.25771" lon="6.27494">
        <ele>306.8</ele>
        <time>2011-07-28T13:47:59Z</time>
      </trkpt>
      <trkpt lat="43.2575" lon="6.27464">
        <ele>300.07</ele>
        <time>2011-07-28T13:48:11Z</time>
      </trkpt>
      <trkpt lat="43.25759" lon="6.27525">
        <ele>292.38</ele>
        <time>2011-07-28T13:48:26Z</time>
      </trkpt>
      <trkpt lat="43.25749" lon="6.27585">
        <ele>281.8</ele>
        <time>2011-07-28T13:48:43Z</time>
      </trkpt>
      <trkpt lat="43.25717" lon="6.27626">
        <ele>269.79</ele>
        <time>2011-07-28T13:49:06Z</time>
      </trkpt>
      <trkpt lat="43.25697" lon="6.27694">
        <ele>262.58</ele>
        <time>2011-07-28T13:49:27Z</time>
      </trkpt>
      <trkpt lat="43.25692" lon="6.27761">
        <ele>260.65</ele>
        <time>2011-07-28T13:49:41Z</time>
      </trkpt>
      <trkpt lat="43.25659" lon="6.27805">
        <ele>259.21</ele>
        <time>2011-07-28T13:49:55Z</time>
      </trkpt>
      <trkpt lat="43.25629" lon="6.27857">
        <ele>258.25</ele>
        <time>2011-07-28T13:50:11Z</time>
      </trkpt>
      <trkpt lat="43.25595" lon="6.2791">
        <ele>251.04</ele>
        <time>2011-07-28T13:50:25Z</time>
      </trkpt>
      <trkpt lat="43.25558" lon="6.27934">
        <ele>248.16</ele>
        <time>2011-07-28T13:50:46Z</time>
      </trkpt>
      <trkpt lat="43.2553" lon="6.27986">
        <ele>248.16</ele>
        <time>2011-07-28T13:51:02Z</time>
      </trkpt>
      <trkpt lat="43.25486" lon="6.28018">
        <ele>249.12</ele>
        <time>2011-07-28T13:51:20Z</time>
      </trkpt>
      <trkpt lat="43.25439" lon="6.28034">
        <ele>245.27</ele>
        <time>2011-07-28T13:51:34Z</time>
      </trkpt>
      <trkpt lat="43.25395" lon="6.28055">
        <ele>244.31</ele>
        <time>2011-07-28T13:51:46Z</time>
      </trkpt>
      <trkpt lat="43.25352" lon="6.28092">
        <ele>241.43</ele>
        <time>2011-07-28T13:51:54Z</time>
      </trkpt>
      <trkpt lat="43.25311" lon="6.28118">
        <ele>237.1</ele>
        <time>2011-07-28T13:52:03Z</time>
      </trkpt>
      <trkpt lat="43.25271" lon="6.28147">
        <ele>235.66</ele>
        <time>2011-07-28T13:52:14Z</time>
      </trkpt>
      <trkpt lat="43.25236" lon="6.28188">
        <ele>234.7</ele>
        <time>2011-07-28T13:52:23Z</time>
      </trkpt>
      <trkpt lat="43.25208" lon="6.28236">
        <ele>235.18</ele>
        <time>2011-07-28T13:52:34Z</time>
      </trkpt>
      <trkpt lat="43.25189" lon="6.28298">
        <ele>233.74</ele>
        <time>2011-07-28T13:52:43Z</time>
      </trkpt>
      <trkpt lat="43.25182" lon="6.28356">
        <ele>224.12</ele>
        <time>2011-07-28T13:52:53Z</time>
      </trkpt>
      <trkpt lat="43.25143" lon="6.2839">
        <ele>226.05</ele>
        <time>2011-07-28T13:53:06Z</time>
      </trkpt>
      <trkpt lat="43.2512" lon="6.28446">
        <ele>227.97</ele>
        <time>2011-07-28T13:53:18Z</time>
      </trkpt>
      <trkpt lat="43.251" lon="6.28509">
        <ele>226.53</ele>
        <time>2011-07-28T13:53:26Z</time>
      </trkpt>
      <trkpt lat="43.25084" lon="6.28565">
        <ele>223.16</ele>
        <time>2011-07-28T13:53:34Z</time>
      </trkpt>
      <trkpt lat="43.25061" lon="6.28619">
        <ele>222.68</ele>
        <time>2011-07-28T13:53:43Z</time>
      </trkpt>
      <trkpt lat="43.25021" lon="6.28657">
        <ele>217.4</ele>
        <time>2011-07-28T13:53:51Z</time>
      </trkpt>
      <trkpt lat="43.24975" lon="6.28686">
        <ele>215.47</ele>
        <time>2011-07-28T13:53:58Z</time>
      </trkpt>
      <trkpt lat="43.24925" lon="6.28709">
        <ele>214.03</ele>
        <time>2011-07-28T13:54:05Z</time>
      </trkpt>
      <trkpt lat="43.24883" lon="6.2873">
        <ele>211.63</ele>
        <time>2011-07-28T13:54:11Z</time>
      </trkpt>
      <trkpt lat="43.24838" lon="6.28732">
        <ele>210.67</ele>
        <time>2011-07-28T13:54:24Z</time>
      </trkpt>
      <trkpt lat="43.24791" lon="6.28718">
        <ele>209.22</ele>
        <time>2011-07-28T13:54:34Z</time>
      </trkpt>
      <trkpt lat="43.24744" lon="6.28729">
        <ele>205.38</ele>
        <time>2011-07-28T13:54:44Z</time>
      </trkpt>
      <trkpt lat="43.24703" lon="6.28741">
        <ele>203.94</ele>
        <time>2011-07-28T13:54:53Z</time>
      </trkpt>
      <trkpt lat="43.24671" lon="6.2879">
        <ele>202.01</ele>
        <time>2011-07-28T13:55:02Z</time>
      </trkpt>
      <trkpt lat="43.24637" lon="6.28836">
        <ele>197.69</ele>
        <time>2011-07-28T13:55:11Z</time>
      </trkpt>
      <trkpt lat="43.24595" lon="6.28864">
        <ele>192.88</ele>
        <time>2011-07-28T13:55:19Z</time>
      </trkpt>
      <trkpt lat="43.24558" lon="6.28909">
        <ele>189.04</ele>
        <time>2011-07-28T13:55:28Z</time>
      </trkpt>
      <trkpt lat="43.24528" lon="6.28954">
        <ele>185.67</ele>
        <time>2011-07-28T13:55:38Z</time>
      </trkpt>
      <trkpt lat="43.245" lon="6.29007">
        <ele>180.87</ele>
        <time>2011-07-28T13:55:44Z</time>
      </trkpt>
      <trkpt lat="43.24491" lon="6.29067">
        <ele>176.06</ele>
        <time>2011-07-28T13:55:51Z</time>
      </trkpt>
      <trkpt lat="43.24493" lon="6.29131">
        <ele>174.62</ele>
        <time>2011-07-28T13:55:59Z</time>
      </trkpt>
      <trkpt lat="43.24484" lon="6.29196">
        <ele>170.77</ele>
        <time>2011-07-28T13:56:07Z</time>
      </trkpt>
      <trkpt lat="43.24457" lon="6.29246">
        <ele>166.93</ele>
        <time>2011-07-28T13:56:15Z</time>
      </trkpt>
      <trkpt lat="43.24428" lon="6.29295">
        <ele>159.24</ele>
        <time>2011-07-28T13:56:28Z</time>
      </trkpt>
      <trkpt lat="43.24411" lon="6.29367">
        <ele>157.79</ele>
        <time>2011-07-28T13:57:13Z</time>
      </trkpt>
      <trkpt lat="43.24396" lon="6.29437">
        <ele>156.35</ele>
        <time>2011-07-28T13:57:27Z</time>
      </trkpt>
      <trkpt lat="43.24386" lon="6.29505">
        <ele>151.06</ele>
        <time>2011-07-28T13:57:38Z</time>
      </trkpt>
      <trkpt lat="43.24356" lon="6.29564">
        <ele>149.62</ele>
        <time>2011-07-28T13:58:02Z</time>
      </trkpt>
      <trkpt lat="43.24324" lon="6.29614">
        <ele>155.39</ele>
        <time>2011-07-28T13:58:17Z</time>
      </trkpt>
      <trkpt lat="43.24293" lon="6.29669">
        <ele>163.56</ele>
        <time>2011-07-28T13:58:42Z</time>
      </trkpt>
      <trkpt lat="43.24265" lon="6.29729">
        <ele>161.64</ele>
        <time>2011-07-28T13:59:06Z</time>
      </trkpt>
      <trkpt lat="43.24224" lon="6.29771">
        <ele>159.72</ele>
        <time>2011-07-28T13:59:17Z</time>
      </trkpt>
      <trkpt lat="43.2417" lon="6.2979">
        <ele>159.24</ele>
        <time>2011-07-28T13:59:24Z</time>
      </trkpt>
      <trkpt lat="43.24125" lon="6.29829">
        <ele>157.79</ele>
        <time>2011-07-28T13:59:30Z</time>
      </trkpt>
      <trkpt lat="43.24084" lon="6.29861">
        <ele>154.43</ele>
        <time>2011-07-28T13:59:36Z</time>
      </trkpt>
      <trkpt lat="43.24053" lon="6.29902">
        <ele>152.03</ele>
        <time>2011-07-28T13:59:42Z</time>
      </trkpt>
      <trkpt lat="43.24004" lon="6.29907">
        <ele>149.14</ele>
        <time>2011-07-28T13:59:48Z</time>
      </trkpt>
      <trkpt lat="43.23952" lon="6.29918">
        <ele>144.34</ele>
        <time>2011-07-28T13:59:55Z</time>
      </trkpt>
      <trkpt lat="43.23913" lon="6.29957">
        <ele>140.01</ele>
        <time>2011-07-28T14:00:02Z</time>
      </trkpt>
      <trkpt lat="43.23889" lon="6.29992">
        <ele>141.45</ele>
        <time>2011-07-28T14:01:45Z</time>
      </trkpt>
      <trkpt lat="43.23869" lon="6.30058">
        <ele>142.41</ele>
        <time>2011-07-28T14:01:58Z</time>
      </trkpt>
      <trkpt lat="43.23845" lon="6.30114">
        <ele>142.89</ele>
        <time>2011-07-28T14:02:14Z</time>
      </trkpt>
      <trkpt lat="43.23824" lon="6.30168">
        <ele>143.37</ele>
        <time>2011-07-28T14:02:25Z</time>
      </trkpt>
      <trkpt lat="43.23804" lon="6.30222">
        <ele>140.97</ele>
        <time>2011-07-28T14:02:52Z</time>
      </trkpt>
      <trkpt lat="43.23773" lon="6.30281">
        <ele>142.41</ele>
        <time>2011-07-28T14:03:13Z</time>
      </trkpt>
      <trkpt lat="43.23754" lon="6.30341">
        <ele>144.82</ele>
        <time>2011-07-28T14:03:32Z</time>
      </trkpt>
      <trkpt lat="43.23732" lon="6.30396">
        <ele>146.26</ele>
        <time>2011-07-28T14:03:50Z</time>
      </trkpt>
      <trkpt lat="43.2371" lon="6.30452">
        <ele>144.82</ele>
        <time>2011-07-28T14:04:07Z</time>
      </trkpt>
      <trkpt lat="43.2369" lon="6.3051">
        <ele>146.74</ele>
        <time>2011-07-28T14:04:22Z</time>
      </trkpt>
      <trkpt lat="43.23675" lon="6.30572">
        <ele>144.82</ele>
        <time>2011-07-28T14:04:38Z</time>
      </trkpt>
      <trkpt lat="43.23662" lon="6.30629">
        <ele>136.16</ele>
        <time>2011-07-28T14:04:49Z</time>
      </trkpt>
      <trkpt lat="43.23673" lon="6.30706">
        <ele>134.72</ele>
        <time>2011-07-28T14:04:59Z</time>
      </trkpt>
      <trkpt lat="43.23699" lon="6.30759">
        <ele>135.2</ele>
        <time>2011-07-28T14:05:11Z</time>
      </trkpt>
      <trkpt lat="43.23682" lon="6.30761">
        <ele>141.93</ele>
        <time>2011-07-28T14:05:25Z</time>
      </trkpt>
      <trkpt lat="43.23695" lon="6.30804">
        <ele>142.89</ele>
        <time>2011-07-28T14:06:11Z</time>
      </trkpt>
      <trkpt lat="43.23728" lon="6.30844">
        <ele>149.14</ele>
        <time>2011-07-28T14:06:45Z</time>
      </trkpt>
    </trkseg>
  </trk>
</gpx>